<?xml version="1.0" encoding="UTF-8" standalone="no" ?>
<gpx xmlns="http://www.topografix.com/GPX/1/1" xmlns:xsi="http://www.w3.org/2001/XMLSchema-instance" xsi:schemaLocation="http://www.topografix.com/GPX/1/1 http://www.topografix.com/GPX/1/1/gpx.xsd" version="1.1" creator="VisuGPX - https://www.visugpx.com">
  <metadata>
    <name>Rimbach-près-Guebwiller avec Abbaye de Murbach</name>
    <desc><![CDATA[Faite le 2019-02-26 11:46:00
Attention distance et dénivelé incorrect (doivent être réduits)]]></desc>
  </metadata>
  <trk>
    <name><![CDATA[2019-02-26 11:46:00]]></name>
    <extensions>
      <line xmlns="http://www.topografix.com/GPX/gpx_style/0/2">
        <color>0000FF</color>
        <opacity>0.78</opacity>
        <width>3</width>
      </line>
    </extensions>
    <trkseg>
      <trkpt lat="47.90544" lon="7.157">
        <ele>558.2</ele>
        <time>2019-02-26T10:46:01.000Z</time>
      </trkpt>
      <trkpt lat="47.90537" lon="7.15694">
        <ele>558.7</ele>
        <time>2019-02-26T10:46:12.000Z</time>
      </trkpt>
      <trkpt lat="47.90539" lon="7.15698">
        <ele>558.5</ele>
        <time>2019-02-26T10:46:46.000Z</time>
      </trkpt>
      <trkpt lat="47.90535" lon="7.1566">
        <ele>559.4</ele>
        <time>2019-02-26T10:47:04.000Z</time>
      </trkpt>
      <trkpt lat="47.90524" lon="7.15679">
        <ele>559.2</ele>
        <time>2019-02-26T10:47:22.000Z</time>
      </trkpt>
      <trkpt lat="47.90524" lon="7.15676">
        <ele>559.2</ele>
        <time>2019-02-26T10:47:39.000Z</time>
      </trkpt>
      <trkpt lat="47.90523" lon="7.15681">
        <ele>559.2</ele>
        <time>2019-02-26T10:48:15.000Z</time>
      </trkpt>
      <trkpt lat="47.90477" lon="7.15654">
        <ele>560.9</ele>
        <time>2019-02-26T10:48:33.000Z</time>
      </trkpt>
      <trkpt lat="47.90497" lon="7.15662">
        <ele>560.9</ele>
        <time>2019-02-26T10:48:51.000Z</time>
      </trkpt>
      <trkpt lat="47.90489" lon="7.15655">
        <ele>560.9</ele>
        <time>2019-02-26T10:49:09.000Z</time>
      </trkpt>
      <trkpt lat="47.90491" lon="7.15656">
        <ele>560.9</ele>
        <time>2019-02-26T10:49:26.000Z</time>
      </trkpt>
      <trkpt lat="47.90516" lon="7.15679">
        <ele>559.5</ele>
        <time>2019-02-26T10:49:44.000Z</time>
      </trkpt>
      <trkpt lat="47.90535" lon="7.15686">
        <ele>558.8</ele>
        <time>2019-02-26T10:50:02.000Z</time>
      </trkpt>
      <trkpt lat="47.90543" lon="7.15703">
        <ele>558.1</ele>
        <time>2019-02-26T10:50:19.000Z</time>
      </trkpt>
      <trkpt lat="47.90561" lon="7.1572">
        <ele>557.3</ele>
        <time>2019-02-26T10:50:37.000Z</time>
      </trkpt>
      <trkpt lat="47.90576" lon="7.1574">
        <ele>557.1</ele>
        <time>2019-02-26T10:50:55.000Z</time>
      </trkpt>
      <trkpt lat="47.90579" lon="7.15751">
        <ele>556.8</ele>
        <time>2019-02-26T10:51:13.000Z</time>
      </trkpt>
      <trkpt lat="47.90588" lon="7.15776">
        <ele>556.4</ele>
        <time>2019-02-26T10:51:31.000Z</time>
      </trkpt>
      <trkpt lat="47.90598" lon="7.158">
        <ele>555.5</ele>
        <time>2019-02-26T10:51:49.000Z</time>
      </trkpt>
      <trkpt lat="47.9061" lon="7.15825">
        <ele>554.5</ele>
        <time>2019-02-26T10:52:07.000Z</time>
      </trkpt>
      <trkpt lat="47.90625" lon="7.15847">
        <ele>555.5</ele>
        <time>2019-02-26T10:52:25.000Z</time>
      </trkpt>
      <trkpt lat="47.90626" lon="7.15846">
        <ele>555.8</ele>
        <time>2019-02-26T10:52:43.000Z</time>
      </trkpt>
      <trkpt lat="47.90648" lon="7.15844">
        <ele>558.3</ele>
        <time>2019-02-26T10:53:01.000Z</time>
      </trkpt>
      <trkpt lat="47.90678" lon="7.15844">
        <ele>559.3</ele>
        <time>2019-02-26T10:53:19.000Z</time>
      </trkpt>
      <trkpt lat="47.90699" lon="7.15842">
        <ele>561.4</ele>
        <time>2019-02-26T10:53:37.000Z</time>
      </trkpt>
      <trkpt lat="47.90697" lon="7.15838">
        <ele>560.8</ele>
        <time>2019-02-26T10:53:54.000Z</time>
      </trkpt>
      <trkpt lat="47.90699" lon="7.15837">
        <ele>560.9</ele>
        <time>2019-02-26T10:54:05.000Z</time>
      </trkpt>
      <trkpt lat="47.90701" lon="7.15836">
        <ele>561</ele>
        <time>2019-02-26T10:54:15.000Z</time>
      </trkpt>
      <trkpt lat="47.90748" lon="7.15833">
        <ele>565.9</ele>
        <time>2019-02-26T10:54:54.000Z</time>
      </trkpt>
      <trkpt lat="47.90766" lon="7.15856">
        <ele>570.1</ele>
        <time>2019-02-26T10:55:12.000Z</time>
      </trkpt>
      <trkpt lat="47.90768" lon="7.15845">
        <ele>570.4</ele>
        <time>2019-02-26T10:55:30.000Z</time>
      </trkpt>
      <trkpt lat="47.90795" lon="7.15871">
        <ele>577.3</ele>
        <time>2019-02-26T10:55:48.000Z</time>
      </trkpt>
      <trkpt lat="47.90846" lon="7.15847">
        <ele>598.2</ele>
        <time>2019-02-26T10:56:06.000Z</time>
      </trkpt>
      <trkpt lat="47.90814" lon="7.159">
        <ele>581.5</ele>
        <time>2019-02-26T10:56:24.000Z</time>
      </trkpt>
      <trkpt lat="47.90824" lon="7.15908">
        <ele>583.5</ele>
        <time>2019-02-26T10:56:42.000Z</time>
      </trkpt>
      <trkpt lat="47.90838" lon="7.15928">
        <ele>587.4</ele>
        <time>2019-02-26T10:57:00.000Z</time>
      </trkpt>
      <trkpt lat="47.90836" lon="7.15931">
        <ele>587.6</ele>
        <time>2019-02-26T10:57:34.000Z</time>
      </trkpt>
      <trkpt lat="47.90835" lon="7.15939">
        <ele>589</ele>
        <time>2019-02-26T10:57:52.000Z</time>
      </trkpt>
      <trkpt lat="47.90836" lon="7.15938">
        <ele>588.9</ele>
        <time>2019-02-26T10:58:09.000Z</time>
      </trkpt>
      <trkpt lat="47.90881" lon="7.15973">
        <ele>599.6</ele>
        <time>2019-02-26T10:58:27.000Z</time>
      </trkpt>
      <trkpt lat="47.90883" lon="7.15939">
        <ele>600</ele>
        <time>2019-02-26T10:58:45.000Z</time>
      </trkpt>
      <trkpt lat="47.90884" lon="7.15938">
        <ele>600.6</ele>
        <time>2019-02-26T10:59:02.000Z</time>
      </trkpt>
      <trkpt lat="47.90883" lon="7.15934">
        <ele>600.9</ele>
        <time>2019-02-26T10:59:20.000Z</time>
      </trkpt>
      <trkpt lat="47.90883" lon="7.15933">
        <ele>601</ele>
        <time>2019-02-26T10:59:37.000Z</time>
      </trkpt>
      <trkpt lat="47.90873" lon="7.15865">
        <ele>610.5</ele>
        <time>2019-02-26T10:59:55.000Z</time>
      </trkpt>
      <trkpt lat="47.9087" lon="7.1585">
        <ele>608.7</ele>
        <time>2019-02-26T11:00:13.000Z</time>
      </trkpt>
      <trkpt lat="47.90889" lon="7.15875">
        <ele>615</ele>
        <time>2019-02-26T11:00:31.000Z</time>
      </trkpt>
      <trkpt lat="47.90887" lon="7.15877">
        <ele>613.9</ele>
        <time>2019-02-26T11:00:48.000Z</time>
      </trkpt>
      <trkpt lat="47.90886" lon="7.15877">
        <ele>613.5</ele>
        <time>2019-02-26T11:01:06.000Z</time>
      </trkpt>
      <trkpt lat="47.90883" lon="7.15876">
        <ele>612.4</ele>
        <time>2019-02-26T11:01:24.000Z</time>
      </trkpt>
      <trkpt lat="47.90882" lon="7.15876">
        <ele>612</ele>
        <time>2019-02-26T11:02:34.000Z</time>
      </trkpt>
      <trkpt lat="47.90931" lon="7.15918">
        <ele>628</ele>
        <time>2019-02-26T11:04:01.000Z</time>
      </trkpt>
      <trkpt lat="47.90938" lon="7.15938">
        <ele>628.3</ele>
        <time>2019-02-26T11:04:20.000Z</time>
      </trkpt>
      <trkpt lat="47.9096" lon="7.15971">
        <ele>631.7</ele>
        <time>2019-02-26T11:04:38.000Z</time>
      </trkpt>
      <trkpt lat="47.9096" lon="7.15969">
        <ele>632.1</ele>
        <time>2019-02-26T11:04:53.628Z</time>
      </trkpt>
      <trkpt lat="47.90965" lon="7.15972">
        <ele>634.1</ele>
        <time>2019-02-26T11:05:12.000Z</time>
      </trkpt>
      <trkpt lat="47.90967" lon="7.15965">
        <ele>636.6</ele>
        <time>2019-02-26T11:05:49.000Z</time>
      </trkpt>
      <trkpt lat="47.90977" lon="7.15959">
        <ele>642.2</ele>
        <time>2019-02-26T11:06:25.000Z</time>
      </trkpt>
      <trkpt lat="47.90979" lon="7.15959">
        <ele>643</ele>
        <time>2019-02-26T11:06:42.000Z</time>
      </trkpt>
      <trkpt lat="47.90979" lon="7.15957">
        <ele>643.3</ele>
        <time>2019-02-26T11:06:59.000Z</time>
      </trkpt>
      <trkpt lat="47.91011" lon="7.15895">
        <ele>655.1</ele>
        <time>2019-02-26T11:07:34.000Z</time>
      </trkpt>
      <trkpt lat="47.91027" lon="7.15875">
        <ele>656.9</ele>
        <time>2019-02-26T11:07:52.000Z</time>
      </trkpt>
      <trkpt lat="47.91027" lon="7.15879">
        <ele>656.9</ele>
        <time>2019-02-26T11:08:10.000Z</time>
      </trkpt>
      <trkpt lat="47.91028" lon="7.15875">
        <ele>657</ele>
        <time>2019-02-26T11:08:28.000Z</time>
      </trkpt>
      <trkpt lat="47.91034" lon="7.15875">
        <ele>656.3</ele>
        <time>2019-02-26T11:08:46.000Z</time>
      </trkpt>
      <trkpt lat="47.91031" lon="7.15875">
        <ele>656.7</ele>
        <time>2019-02-26T11:09:03.000Z</time>
      </trkpt>
      <trkpt lat="47.91032" lon="7.15876">
        <ele>656.5</ele>
        <time>2019-02-26T11:09:20.000Z</time>
      </trkpt>
      <trkpt lat="47.91031" lon="7.15875">
        <ele>656.7</ele>
        <time>2019-02-26T11:09:38.000Z</time>
      </trkpt>
      <trkpt lat="47.91032" lon="7.15873">
        <ele>656.6</ele>
        <time>2019-02-26T11:10:30.000Z</time>
      </trkpt>
      <trkpt lat="47.91058" lon="7.15867">
        <ele>653.9</ele>
        <time>2019-02-26T11:10:48.000Z</time>
      </trkpt>
      <trkpt lat="47.91039" lon="7.15856">
        <ele>656.8</ele>
        <time>2019-02-26T11:11:06.000Z</time>
      </trkpt>
      <trkpt lat="47.91041" lon="7.15838">
        <ele>658.9</ele>
        <time>2019-02-26T11:11:24.000Z</time>
      </trkpt>
      <trkpt lat="47.91069" lon="7.15859">
        <ele>651.4</ele>
        <time>2019-02-26T11:11:44.000Z</time>
      </trkpt>
      <trkpt lat="47.91025" lon="7.15866">
        <ele>656.6</ele>
        <time>2019-02-26T11:12:02.000Z</time>
      </trkpt>
      <trkpt lat="47.91045" lon="7.15869">
        <ele>655.4</ele>
        <time>2019-02-26T11:12:20.000Z</time>
      </trkpt>
      <trkpt lat="47.91071" lon="7.15864">
        <ele>650.3</ele>
        <time>2019-02-26T11:12:38.000Z</time>
      </trkpt>
      <trkpt lat="47.91075" lon="7.15859">
        <ele>649.7</ele>
        <time>2019-02-26T11:13:13.000Z</time>
      </trkpt>
      <trkpt lat="47.91077" lon="7.15857">
        <ele>649.4</ele>
        <time>2019-02-26T11:13:30.000Z</time>
      </trkpt>
      <trkpt lat="47.91079" lon="7.15852">
        <ele>649.6</ele>
        <time>2019-02-26T11:13:48.000Z</time>
      </trkpt>
      <trkpt lat="47.91154" lon="7.15824">
        <ele>628.9</ele>
        <time>2019-02-26T11:14:06.000Z</time>
      </trkpt>
      <trkpt lat="47.91148" lon="7.15831">
        <ele>627.8</ele>
        <time>2019-02-26T11:14:42.000Z</time>
      </trkpt>
      <trkpt lat="47.91149" lon="7.15838">
        <ele>625.2</ele>
        <time>2019-02-26T11:15:00.000Z</time>
      </trkpt>
      <trkpt lat="47.91146" lon="7.15858">
        <ele>619.5</ele>
        <time>2019-02-26T11:15:18.000Z</time>
      </trkpt>
      <trkpt lat="47.91139" lon="7.15899">
        <ele>612.9</ele>
        <time>2019-02-26T11:15:36.000Z</time>
      </trkpt>
      <trkpt lat="47.91137" lon="7.15912">
        <ele>612.6</ele>
        <time>2019-02-26T11:15:54.000Z</time>
      </trkpt>
      <trkpt lat="47.91149" lon="7.15895">
        <ele>608.5</ele>
        <time>2019-02-26T11:16:12.000Z</time>
      </trkpt>
      <trkpt lat="47.91163" lon="7.15881">
        <ele>605.4</ele>
        <time>2019-02-26T11:16:30.000Z</time>
      </trkpt>
      <trkpt lat="47.91183" lon="7.1588">
        <ele>599.3</ele>
        <time>2019-02-26T11:16:48.000Z</time>
      </trkpt>
      <trkpt lat="47.91192" lon="7.15838">
        <ele>614.6</ele>
        <time>2019-02-26T11:17:06.000Z</time>
      </trkpt>
      <trkpt lat="47.91181" lon="7.15888">
        <ele>596.7</ele>
        <time>2019-02-26T11:17:24.000Z</time>
      </trkpt>
      <trkpt lat="47.91215" lon="7.15876">
        <ele>592</ele>
        <time>2019-02-26T11:17:42.000Z</time>
      </trkpt>
      <trkpt lat="47.91234" lon="7.15867">
        <ele>589.7</ele>
        <time>2019-02-26T11:18:00.000Z</time>
      </trkpt>
      <trkpt lat="47.91276" lon="7.15871">
        <ele>570.7</ele>
        <time>2019-02-26T11:18:18.000Z</time>
      </trkpt>
      <trkpt lat="47.91292" lon="7.15849">
        <ele>569.4</ele>
        <time>2019-02-26T11:18:36.000Z</time>
      </trkpt>
      <trkpt lat="47.9127" lon="7.15841">
        <ele>577.7</ele>
        <time>2019-02-26T11:18:53.000Z</time>
      </trkpt>
      <trkpt lat="47.91259" lon="7.1586">
        <ele>581.5</ele>
        <time>2019-02-26T11:19:11.000Z</time>
      </trkpt>
      <trkpt lat="47.91273" lon="7.15867">
        <ele>573.1</ele>
        <time>2019-02-26T11:19:29.000Z</time>
      </trkpt>
      <trkpt lat="47.91265" lon="7.15842">
        <ele>579.9</ele>
        <time>2019-02-26T11:19:47.000Z</time>
      </trkpt>
      <trkpt lat="47.91287" lon="7.15878">
        <ele>564.4</ele>
        <time>2019-02-26T11:20:05.000Z</time>
      </trkpt>
      <trkpt lat="47.91292" lon="7.15886">
        <ele>560.5</ele>
        <time>2019-02-26T11:20:23.000Z</time>
      </trkpt>
      <trkpt lat="47.91278" lon="7.159">
        <ele>561.5</ele>
        <time>2019-02-26T11:20:41.000Z</time>
      </trkpt>
      <trkpt lat="47.91277" lon="7.15906">
        <ele>559.5</ele>
        <time>2019-02-26T11:20:59.000Z</time>
      </trkpt>
      <trkpt lat="47.91277" lon="7.15911">
        <ele>557.5</ele>
        <time>2019-02-26T11:21:17.000Z</time>
      </trkpt>
      <trkpt lat="47.91277" lon="7.15913">
        <ele>556.7</ele>
        <time>2019-02-26T11:21:35.000Z</time>
      </trkpt>
      <trkpt lat="47.91312" lon="7.15936">
        <ele>542.6</ele>
        <time>2019-02-26T11:21:53.000Z</time>
      </trkpt>
      <trkpt lat="47.91318" lon="7.15938">
        <ele>541.1</ele>
        <time>2019-02-26T11:22:10.000Z</time>
      </trkpt>
      <trkpt lat="47.91337" lon="7.15949">
        <ele>536.8</ele>
        <time>2019-02-26T11:22:28.000Z</time>
      </trkpt>
      <trkpt lat="47.91328" lon="7.15964">
        <ele>541.1</ele>
        <time>2019-02-26T11:22:46.000Z</time>
      </trkpt>
      <trkpt lat="47.91354" lon="7.15967">
        <ele>534.6</ele>
        <time>2019-02-26T11:23:04.000Z</time>
      </trkpt>
      <trkpt lat="47.91365" lon="7.15951">
        <ele>530.5</ele>
        <time>2019-02-26T11:23:24.000Z</time>
      </trkpt>
      <trkpt lat="47.91397" lon="7.15952">
        <ele>522.6</ele>
        <time>2019-02-26T11:23:42.000Z</time>
      </trkpt>
      <trkpt lat="47.91389" lon="7.15956">
        <ele>524.8</ele>
        <time>2019-02-26T11:24:00.000Z</time>
      </trkpt>
      <trkpt lat="47.91392" lon="7.15957">
        <ele>524.1</ele>
        <time>2019-02-26T11:24:35.000Z</time>
      </trkpt>
      <trkpt lat="47.91395" lon="7.15955">
        <ele>523.3</ele>
        <time>2019-02-26T11:24:52.000Z</time>
      </trkpt>
      <trkpt lat="47.91399" lon="7.15956">
        <ele>522.3</ele>
        <time>2019-02-26T11:25:10.000Z</time>
      </trkpt>
      <trkpt lat="47.91401" lon="7.15959">
        <ele>522</ele>
        <time>2019-02-26T11:25:28.000Z</time>
      </trkpt>
      <trkpt lat="47.91451" lon="7.16001">
        <ele>508.6</ele>
        <time>2019-02-26T11:25:46.000Z</time>
      </trkpt>
      <trkpt lat="47.91433" lon="7.16026">
        <ele>517.3</ele>
        <time>2019-02-26T11:26:04.000Z</time>
      </trkpt>
      <trkpt lat="47.91443" lon="7.16019">
        <ele>512.6</ele>
        <time>2019-02-26T11:26:22.000Z</time>
      </trkpt>
      <trkpt lat="47.91443" lon="7.16017">
        <ele>512.4</ele>
        <time>2019-02-26T11:26:39.000Z</time>
      </trkpt>
      <trkpt lat="47.91452" lon="7.16009">
        <ele>508.9</ele>
        <time>2019-02-26T11:26:57.000Z</time>
      </trkpt>
      <trkpt lat="47.91454" lon="7.16008">
        <ele>508.3</ele>
        <time>2019-02-26T11:27:15.000Z</time>
      </trkpt>
      <trkpt lat="47.91459" lon="7.16006">
        <ele>506.9</ele>
        <time>2019-02-26T11:27:50.000Z</time>
      </trkpt>
      <trkpt lat="47.91459" lon="7.16007">
        <ele>507</ele>
        <time>2019-02-26T11:28:08.000Z</time>
      </trkpt>
      <trkpt lat="47.91458" lon="7.1601">
        <ele>507.3</ele>
        <time>2019-02-26T11:28:43.000Z</time>
      </trkpt>
      <trkpt lat="47.91456" lon="7.16019">
        <ele>508.1</ele>
        <time>2019-02-26T11:29:01.000Z</time>
      </trkpt>
      <trkpt lat="47.91465" lon="7.16046">
        <ele>507.7</ele>
        <time>2019-02-26T11:29:19.000Z</time>
      </trkpt>
      <trkpt lat="47.91471" lon="7.16045">
        <ele>505</ele>
        <time>2019-02-26T11:29:37.000Z</time>
      </trkpt>
      <trkpt lat="47.91488" lon="7.16054">
        <ele>499.2</ele>
        <time>2019-02-26T11:29:55.000Z</time>
      </trkpt>
      <trkpt lat="47.91486" lon="7.16049">
        <ele>499.8</ele>
        <time>2019-02-26T11:30:12.000Z</time>
      </trkpt>
      <trkpt lat="47.91502" lon="7.16058">
        <ele>494</ele>
        <time>2019-02-26T11:30:30.000Z</time>
      </trkpt>
      <trkpt lat="47.91528" lon="7.16092">
        <ele>489.8</ele>
        <time>2019-02-26T11:30:48.000Z</time>
      </trkpt>
      <trkpt lat="47.91519" lon="7.1609">
        <ele>493.2</ele>
        <time>2019-02-26T11:31:06.000Z</time>
      </trkpt>
      <trkpt lat="47.91522" lon="7.1606">
        <ele>489.4</ele>
        <time>2019-02-26T11:31:24.000Z</time>
      </trkpt>
      <trkpt lat="47.91553" lon="7.16097">
        <ele>483.3</ele>
        <time>2019-02-26T11:31:42.000Z</time>
      </trkpt>
      <trkpt lat="47.91559" lon="7.1609">
        <ele>482.1</ele>
        <time>2019-02-26T11:32:00.000Z</time>
      </trkpt>
      <trkpt lat="47.91559" lon="7.16097">
        <ele>482.1</ele>
        <time>2019-02-26T11:32:20.000Z</time>
      </trkpt>
      <trkpt lat="47.91557" lon="7.16097">
        <ele>482.3</ele>
        <time>2019-02-26T11:32:37.000Z</time>
      </trkpt>
      <trkpt lat="47.91561" lon="7.16098">
        <ele>481.9</ele>
        <time>2019-02-26T11:32:55.000Z</time>
      </trkpt>
      <trkpt lat="47.91616" lon="7.16118">
        <ele>478.6</ele>
        <time>2019-02-26T11:33:13.000Z</time>
      </trkpt>
      <trkpt lat="47.91621" lon="7.1617">
        <ele>466.8</ele>
        <time>2019-02-26T11:33:31.000Z</time>
      </trkpt>
      <trkpt lat="47.9162" lon="7.16187">
        <ele>466.6</ele>
        <time>2019-02-26T11:33:49.000Z</time>
      </trkpt>
      <trkpt lat="47.91652" lon="7.16182">
        <ele>464.6</ele>
        <time>2019-02-26T11:34:07.000Z</time>
      </trkpt>
      <trkpt lat="47.9164" lon="7.16207">
        <ele>462.4</ele>
        <time>2019-02-26T11:34:25.000Z</time>
      </trkpt>
      <trkpt lat="47.91652" lon="7.16221">
        <ele>459.7</ele>
        <time>2019-02-26T11:34:43.000Z</time>
      </trkpt>
      <trkpt lat="47.91677" lon="7.16245">
        <ele>455.5</ele>
        <time>2019-02-26T11:35:01.000Z</time>
      </trkpt>
      <trkpt lat="47.91698" lon="7.16259">
        <ele>452.3</ele>
        <time>2019-02-26T11:35:19.000Z</time>
      </trkpt>
      <trkpt lat="47.91686" lon="7.16267">
        <ele>455.7</ele>
        <time>2019-02-26T11:35:37.000Z</time>
      </trkpt>
      <trkpt lat="47.91706" lon="7.16275">
        <ele>451.1</ele>
        <time>2019-02-26T11:35:55.000Z</time>
      </trkpt>
      <trkpt lat="47.91732" lon="7.16281">
        <ele>446.8</ele>
        <time>2019-02-26T11:36:13.000Z</time>
      </trkpt>
      <trkpt lat="47.91739" lon="7.16321">
        <ele>455.1</ele>
        <time>2019-02-26T11:36:31.000Z</time>
      </trkpt>
      <trkpt lat="47.9176" lon="7.16311">
        <ele>444</ele>
        <time>2019-02-26T11:36:49.000Z</time>
      </trkpt>
      <trkpt lat="47.91801" lon="7.16325">
        <ele>440.4</ele>
        <time>2019-02-26T11:37:07.000Z</time>
      </trkpt>
      <trkpt lat="47.91791" lon="7.16348">
        <ele>439.2</ele>
        <time>2019-02-26T11:37:25.000Z</time>
      </trkpt>
      <trkpt lat="47.91803" lon="7.16357">
        <ele>435.5</ele>
        <time>2019-02-26T11:37:43.000Z</time>
      </trkpt>
      <trkpt lat="47.91789" lon="7.16391">
        <ele>439.4</ele>
        <time>2019-02-26T11:38:01.000Z</time>
      </trkpt>
      <trkpt lat="47.9179" lon="7.16431">
        <ele>434.3</ele>
        <time>2019-02-26T11:38:19.000Z</time>
      </trkpt>
      <trkpt lat="47.91792" lon="7.16466">
        <ele>434.6</ele>
        <time>2019-02-26T11:38:37.000Z</time>
      </trkpt>
      <trkpt lat="47.91787" lon="7.16475">
        <ele>437</ele>
        <time>2019-02-26T11:38:55.000Z</time>
      </trkpt>
      <trkpt lat="47.91818" lon="7.16461">
        <ele>428</ele>
        <time>2019-02-26T11:39:13.000Z</time>
      </trkpt>
      <trkpt lat="47.91826" lon="7.16476">
        <ele>426.4</ele>
        <time>2019-02-26T11:39:31.000Z</time>
      </trkpt>
      <trkpt lat="47.91823" lon="7.16502">
        <ele>427.9</ele>
        <time>2019-02-26T11:39:49.000Z</time>
      </trkpt>
      <trkpt lat="47.91837" lon="7.16522">
        <ele>424.5</ele>
        <time>2019-02-26T11:40:07.000Z</time>
      </trkpt>
      <trkpt lat="47.91834" lon="7.1654">
        <ele>426.7</ele>
        <time>2019-02-26T11:40:25.000Z</time>
      </trkpt>
      <trkpt lat="47.91836" lon="7.16551">
        <ele>426.7</ele>
        <time>2019-02-26T11:40:43.000Z</time>
      </trkpt>
      <trkpt lat="47.91837" lon="7.16553">
        <ele>426.5</ele>
        <time>2019-02-26T11:41:00.000Z</time>
      </trkpt>
      <trkpt lat="47.91835" lon="7.16572">
        <ele>431</ele>
        <time>2019-02-26T11:41:18.000Z</time>
      </trkpt>
      <trkpt lat="47.91906" lon="7.16603">
        <ele>412</ele>
        <time>2019-02-26T11:41:36.000Z</time>
      </trkpt>
      <trkpt lat="47.91907" lon="7.16617">
        <ele>413.7</ele>
        <time>2019-02-26T11:41:54.000Z</time>
      </trkpt>
      <trkpt lat="47.91916" lon="7.16625">
        <ele>411.8</ele>
        <time>2019-02-26T11:42:12.000Z</time>
      </trkpt>
      <trkpt lat="47.91944" lon="7.16645">
        <ele>407.8</ele>
        <time>2019-02-26T11:42:30.000Z</time>
      </trkpt>
      <trkpt lat="47.91985" lon="7.16671">
        <ele>402.2</ele>
        <time>2019-02-26T11:42:48.000Z</time>
      </trkpt>
      <trkpt lat="47.91993" lon="7.16655">
        <ele>401.3</ele>
        <time>2019-02-26T11:43:06.000Z</time>
      </trkpt>
      <trkpt lat="47.92005" lon="7.16671">
        <ele>399.9</ele>
        <time>2019-02-26T11:43:24.000Z</time>
      </trkpt>
      <trkpt lat="47.91984" lon="7.16705">
        <ele>402.1</ele>
        <time>2019-02-26T11:43:42.000Z</time>
      </trkpt>
      <trkpt lat="47.91972" lon="7.16729">
        <ele>404.3</ele>
        <time>2019-02-26T11:44:00.000Z</time>
      </trkpt>
      <trkpt lat="47.91981" lon="7.16729">
        <ele>402.5</ele>
        <time>2019-02-26T11:44:18.000Z</time>
      </trkpt>
      <trkpt lat="47.91986" lon="7.16737">
        <ele>401.5</ele>
        <time>2019-02-26T11:44:36.000Z</time>
      </trkpt>
      <trkpt lat="47.91977" lon="7.16729">
        <ele>403.3</ele>
        <time>2019-02-26T11:44:54.000Z</time>
      </trkpt>
      <trkpt lat="47.9198" lon="7.16727">
        <ele>402.7</ele>
        <time>2019-02-26T11:45:14.000Z</time>
      </trkpt>
      <trkpt lat="47.91977" lon="7.1673">
        <ele>403.3</ele>
        <time>2019-02-26T11:45:32.000Z</time>
      </trkpt>
      <trkpt lat="47.91973" lon="7.16726">
        <ele>404</ele>
        <time>2019-02-26T11:45:50.000Z</time>
      </trkpt>
      <trkpt lat="47.91983" lon="7.16686">
        <ele>402.4</ele>
        <time>2019-02-26T11:46:08.000Z</time>
      </trkpt>
      <trkpt lat="47.91962" lon="7.16668">
        <ele>406.3</ele>
        <time>2019-02-26T11:46:26.000Z</time>
      </trkpt>
      <trkpt lat="47.91958" lon="7.16662">
        <ele>406.8</ele>
        <time>2019-02-26T11:46:44.000Z</time>
      </trkpt>
      <trkpt lat="47.91958" lon="7.16654">
        <ele>406.4</ele>
        <time>2019-02-26T11:47:02.000Z</time>
      </trkpt>
      <trkpt lat="47.91957" lon="7.1665">
        <ele>406.3</ele>
        <time>2019-02-26T11:47:20.000Z</time>
      </trkpt>
      <trkpt lat="47.91959" lon="7.16622">
        <ele>405.7</ele>
        <time>2019-02-26T11:47:38.000Z</time>
      </trkpt>
      <trkpt lat="47.91999" lon="7.1658">
        <ele>411.7</ele>
        <time>2019-02-26T11:47:56.000Z</time>
      </trkpt>
      <trkpt lat="47.92003" lon="7.16582">
        <ele>411.5</ele>
        <time>2019-02-26T11:48:14.000Z</time>
      </trkpt>
      <trkpt lat="47.92028" lon="7.16574">
        <ele>414.7</ele>
        <time>2019-02-26T11:48:32.000Z</time>
      </trkpt>
      <trkpt lat="47.92042" lon="7.16555">
        <ele>418.1</ele>
        <time>2019-02-26T11:48:50.000Z</time>
      </trkpt>
      <trkpt lat="47.92055" lon="7.16541">
        <ele>421.7</ele>
        <time>2019-02-26T11:49:08.000Z</time>
      </trkpt>
      <trkpt lat="47.92056" lon="7.16542">
        <ele>421.4</ele>
        <time>2019-02-26T11:49:25.000Z</time>
      </trkpt>
      <trkpt lat="47.92102" lon="7.16542">
        <ele>423.9</ele>
        <time>2019-02-26T11:49:43.000Z</time>
      </trkpt>
      <trkpt lat="47.92119" lon="7.16538">
        <ele>424.8</ele>
        <time>2019-02-26T11:50:01.000Z</time>
      </trkpt>
      <trkpt lat="47.92117" lon="7.16506">
        <ele>436.3</ele>
        <time>2019-02-26T11:50:19.000Z</time>
      </trkpt>
      <trkpt lat="47.92156" lon="7.16503">
        <ele>425.8</ele>
        <time>2019-02-26T11:50:37.000Z</time>
      </trkpt>
      <trkpt lat="47.92154" lon="7.16473">
        <ele>433.4</ele>
        <time>2019-02-26T11:50:55.000Z</time>
      </trkpt>
      <trkpt lat="47.92161" lon="7.16466">
        <ele>432.7</ele>
        <time>2019-02-26T11:51:13.000Z</time>
      </trkpt>
      <trkpt lat="47.9216" lon="7.16466">
        <ele>433.1</ele>
        <time>2019-02-26T11:51:30.000Z</time>
      </trkpt>
      <trkpt lat="47.92158" lon="7.16464">
        <ele>434.5</ele>
        <time>2019-02-26T11:51:48.000Z</time>
      </trkpt>
      <trkpt lat="47.92162" lon="7.16461">
        <ele>433.7</ele>
        <time>2019-02-26T11:52:06.000Z</time>
      </trkpt>
      <trkpt lat="47.92193" lon="7.16376">
        <ele>443</ele>
        <time>2019-02-26T11:52:24.000Z</time>
      </trkpt>
      <trkpt lat="47.92194" lon="7.16374">
        <ele>442.8</ele>
        <time>2019-02-26T11:52:41.000Z</time>
      </trkpt>
      <trkpt lat="47.92192" lon="7.16369">
        <ele>444.2</ele>
        <time>2019-02-26T11:52:59.000Z</time>
      </trkpt>
      <trkpt lat="47.9221" lon="7.16318">
        <ele>449.7</ele>
        <time>2019-02-26T11:53:17.000Z</time>
      </trkpt>
      <trkpt lat="47.92212" lon="7.16311">
        <ele>450.9</ele>
        <time>2019-02-26T11:53:35.000Z</time>
      </trkpt>
      <trkpt lat="47.92241" lon="7.16284">
        <ele>440.5</ele>
        <time>2019-02-26T11:53:53.000Z</time>
      </trkpt>
      <trkpt lat="47.92233" lon="7.16284">
        <ele>445.2</ele>
        <time>2019-02-26T11:54:11.000Z</time>
      </trkpt>
      <trkpt lat="47.92232" lon="7.16283">
        <ele>446</ele>
        <time>2019-02-26T11:54:29.000Z</time>
      </trkpt>
      <trkpt lat="47.92237" lon="7.1624">
        <ele>448.3</ele>
        <time>2019-02-26T11:54:47.000Z</time>
      </trkpt>
      <trkpt lat="47.92234" lon="7.16176">
        <ele>456.7</ele>
        <time>2019-02-26T11:55:05.000Z</time>
      </trkpt>
      <trkpt lat="47.92229" lon="7.16173">
        <ele>458.2</ele>
        <time>2019-02-26T11:55:23.000Z</time>
      </trkpt>
      <trkpt lat="47.92234" lon="7.16158">
        <ele>456.4</ele>
        <time>2019-02-26T11:55:41.000Z</time>
      </trkpt>
      <trkpt lat="47.92225" lon="7.16137">
        <ele>459.6</ele>
        <time>2019-02-26T11:55:59.000Z</time>
      </trkpt>
      <trkpt lat="47.9221" lon="7.16121">
        <ele>464.9</ele>
        <time>2019-02-26T11:56:17.000Z</time>
      </trkpt>
      <trkpt lat="47.92216" lon="7.16131">
        <ele>463</ele>
        <time>2019-02-26T11:56:35.000Z</time>
      </trkpt>
      <trkpt lat="47.92218" lon="7.16132">
        <ele>462.2</ele>
        <time>2019-02-26T11:56:53.000Z</time>
      </trkpt>
      <trkpt lat="47.92226" lon="7.16131">
        <ele>458.4</ele>
        <time>2019-02-26T11:57:11.000Z</time>
      </trkpt>
      <trkpt lat="47.92227" lon="7.16129">
        <ele>457.7</ele>
        <time>2019-02-26T11:57:29.000Z</time>
      </trkpt>
      <trkpt lat="47.9222" lon="7.16129">
        <ele>460.9</ele>
        <time>2019-02-26T11:57:47.000Z</time>
      </trkpt>
      <trkpt lat="47.92216" lon="7.16109">
        <ele>461.1</ele>
        <time>2019-02-26T11:58:05.000Z</time>
      </trkpt>
      <trkpt lat="47.92208" lon="7.16088">
        <ele>464.3</ele>
        <time>2019-02-26T11:58:23.000Z</time>
      </trkpt>
      <trkpt lat="47.92202" lon="7.16063">
        <ele>466.7</ele>
        <time>2019-02-26T11:58:41.000Z</time>
      </trkpt>
      <trkpt lat="47.92189" lon="7.16013">
        <ele>472.5</ele>
        <time>2019-02-26T11:58:59.000Z</time>
      </trkpt>
      <trkpt lat="47.92184" lon="7.16022">
        <ele>475.1</ele>
        <time>2019-02-26T11:59:17.000Z</time>
      </trkpt>
      <trkpt lat="47.92173" lon="7.16">
        <ele>479.3</ele>
        <time>2019-02-26T11:59:35.000Z</time>
      </trkpt>
      <trkpt lat="47.92171" lon="7.15993">
        <ele>479.5</ele>
        <time>2019-02-26T11:59:52.000Z</time>
      </trkpt>
      <trkpt lat="47.92157" lon="7.15964">
        <ele>484.4</ele>
        <time>2019-02-26T12:00:10.000Z</time>
      </trkpt>
      <trkpt lat="47.92192" lon="7.15937">
        <ele>472.1</ele>
        <time>2019-02-26T12:00:28.000Z</time>
      </trkpt>
      <trkpt lat="47.92158" lon="7.15895">
        <ele>484.3</ele>
        <time>2019-02-26T12:00:46.000Z</time>
      </trkpt>
      <trkpt lat="47.92152" lon="7.15885">
        <ele>486.4</ele>
        <time>2019-02-26T12:01:04.000Z</time>
      </trkpt>
      <trkpt lat="47.92152" lon="7.1588">
        <ele>486.7</ele>
        <time>2019-02-26T12:01:22.000Z</time>
      </trkpt>
      <trkpt lat="47.92142" lon="7.15809">
        <ele>494.4</ele>
        <time>2019-02-26T12:01:40.000Z</time>
      </trkpt>
      <trkpt lat="47.92139" lon="7.15781">
        <ele>496</ele>
        <time>2019-02-26T12:01:58.000Z</time>
      </trkpt>
      <trkpt lat="47.92138" lon="7.15749">
        <ele>495.3</ele>
        <time>2019-02-26T12:02:16.000Z</time>
      </trkpt>
      <trkpt lat="47.92123" lon="7.15708">
        <ele>500.1</ele>
        <time>2019-02-26T12:02:34.000Z</time>
      </trkpt>
      <trkpt lat="47.92134" lon="7.15697">
        <ele>494.3</ele>
        <time>2019-02-26T12:02:53.000Z</time>
      </trkpt>
      <trkpt lat="47.92107" lon="7.15636">
        <ele>495</ele>
        <time>2019-02-26T12:03:11.000Z</time>
      </trkpt>
      <trkpt lat="47.9209" lon="7.15645">
        <ele>504.4</ele>
        <time>2019-02-26T12:03:29.000Z</time>
      </trkpt>
      <trkpt lat="47.92071" lon="7.15606">
        <ele>502.9</ele>
        <time>2019-02-26T12:03:47.000Z</time>
      </trkpt>
      <trkpt lat="47.92048" lon="7.15593">
        <ele>510.1</ele>
        <time>2019-02-26T12:04:05.000Z</time>
      </trkpt>
      <trkpt lat="47.92061" lon="7.15567">
        <ele>505.4</ele>
        <time>2019-02-26T12:04:23.000Z</time>
      </trkpt>
      <trkpt lat="47.9206" lon="7.15562">
        <ele>506.1</ele>
        <time>2019-02-26T12:04:41.000Z</time>
      </trkpt>
      <trkpt lat="47.92057" lon="7.15549">
        <ele>508</ele>
        <time>2019-02-26T12:04:59.000Z</time>
      </trkpt>
      <trkpt lat="47.92068" lon="7.15538">
        <ele>506.1</ele>
        <time>2019-02-26T12:05:34.000Z</time>
      </trkpt>
      <trkpt lat="47.92082" lon="7.15528">
        <ele>504.2</ele>
        <time>2019-02-26T12:05:51.000Z</time>
      </trkpt>
      <trkpt lat="47.92128" lon="7.15536">
        <ele>493.5</ele>
        <time>2019-02-26T12:06:09.000Z</time>
      </trkpt>
      <trkpt lat="47.9215" lon="7.15531">
        <ele>490</ele>
        <time>2019-02-26T12:06:27.000Z</time>
      </trkpt>
      <trkpt lat="47.92149" lon="7.15536">
        <ele>489.1</ele>
        <time>2019-02-26T12:06:45.000Z</time>
      </trkpt>
      <trkpt lat="47.92151" lon="7.15537">
        <ele>488.5</ele>
        <time>2019-02-26T12:07:02.000Z</time>
      </trkpt>
      <trkpt lat="47.92154" lon="7.15537">
        <ele>487.9</ele>
        <time>2019-02-26T12:07:20.000Z</time>
      </trkpt>
      <trkpt lat="47.92196" lon="7.15539">
        <ele>476.5</ele>
        <time>2019-02-26T12:07:38.000Z</time>
      </trkpt>
      <trkpt lat="47.9219" lon="7.15509">
        <ele>480.9</ele>
        <time>2019-02-26T12:07:56.000Z</time>
      </trkpt>
      <trkpt lat="47.92223" lon="7.15496">
        <ele>466.6</ele>
        <time>2019-02-26T12:08:14.000Z</time>
      </trkpt>
      <trkpt lat="47.92201" lon="7.15492">
        <ele>477.2</ele>
        <time>2019-02-26T12:08:34.000Z</time>
      </trkpt>
      <trkpt lat="47.92203" lon="7.15514">
        <ele>475.1</ele>
        <time>2019-02-26T12:08:54.000Z</time>
      </trkpt>
      <trkpt lat="47.92209" lon="7.15496">
        <ele>473.3</ele>
        <time>2019-02-26T12:09:12.000Z</time>
      </trkpt>
      <trkpt lat="47.92215" lon="7.15517">
        <ele>469.6</ele>
        <time>2019-02-26T12:09:30.000Z</time>
      </trkpt>
      <trkpt lat="47.92223" lon="7.15541">
        <ele>464.6</ele>
        <time>2019-02-26T12:09:48.000Z</time>
      </trkpt>
      <trkpt lat="47.92209" lon="7.15556">
        <ele>469.7</ele>
        <time>2019-02-26T12:10:06.000Z</time>
      </trkpt>
      <trkpt lat="47.92235" lon="7.15576">
        <ele>456.9</ele>
        <time>2019-02-26T12:10:24.000Z</time>
      </trkpt>
      <trkpt lat="47.92264" lon="7.15617">
        <ele>446.2</ele>
        <time>2019-02-26T12:10:41.000Z</time>
      </trkpt>
      <trkpt lat="47.92251" lon="7.15625">
        <ele>451.1</ele>
        <time>2019-02-26T12:10:59.000Z</time>
      </trkpt>
      <trkpt lat="47.92247" lon="7.15614">
        <ele>452.7</ele>
        <time>2019-02-26T12:11:16.000Z</time>
      </trkpt>
      <trkpt lat="47.92257" lon="7.15633">
        <ele>448.4</ele>
        <time>2019-02-26T12:11:34.000Z</time>
      </trkpt>
      <trkpt lat="47.92268" lon="7.15614">
        <ele>444.8</ele>
        <time>2019-02-26T12:11:52.000Z</time>
      </trkpt>
      <trkpt lat="47.92263" lon="7.1566">
        <ele>445.9</ele>
        <time>2019-02-26T12:12:10.000Z</time>
      </trkpt>
      <trkpt lat="47.92277" lon="7.15641">
        <ele>440.3</ele>
        <time>2019-02-26T12:12:28.000Z</time>
      </trkpt>
      <trkpt lat="47.92276" lon="7.15657">
        <ele>440.7</ele>
        <time>2019-02-26T12:12:46.000Z</time>
      </trkpt>
      <trkpt lat="47.92276" lon="7.15676">
        <ele>439.8</ele>
        <time>2019-02-26T12:13:04.000Z</time>
      </trkpt>
      <trkpt lat="47.92284" lon="7.15688">
        <ele>438.3</ele>
        <time>2019-02-26T12:13:22.000Z</time>
      </trkpt>
      <trkpt lat="47.92285" lon="7.15699">
        <ele>437.8</ele>
        <time>2019-02-26T12:13:40.000Z</time>
      </trkpt>
      <trkpt lat="47.92276" lon="7.15708">
        <ele>437.8</ele>
        <time>2019-02-26T12:13:58.000Z</time>
      </trkpt>
      <trkpt lat="47.9228" lon="7.15788">
        <ele>433.5</ele>
        <time>2019-02-26T12:14:16.000Z</time>
      </trkpt>
      <trkpt lat="47.92292" lon="7.1578">
        <ele>435.4</ele>
        <time>2019-02-26T12:14:34.000Z</time>
      </trkpt>
      <trkpt lat="47.9228" lon="7.15793">
        <ele>433.2</ele>
        <time>2019-02-26T12:14:52.000Z</time>
      </trkpt>
      <trkpt lat="47.92281" lon="7.15821">
        <ele>431.8</ele>
        <time>2019-02-26T12:15:10.000Z</time>
      </trkpt>
      <trkpt lat="47.92294" lon="7.15849">
        <ele>432.5</ele>
        <time>2019-02-26T12:15:28.000Z</time>
      </trkpt>
      <trkpt lat="47.92316" lon="7.15812">
        <ele>436.2</ele>
        <time>2019-02-26T12:15:46.000Z</time>
      </trkpt>
      <trkpt lat="47.92329" lon="7.15805">
        <ele>437.7</ele>
        <time>2019-02-26T12:16:04.000Z</time>
      </trkpt>
      <trkpt lat="47.92323" lon="7.15834">
        <ele>434.6</ele>
        <time>2019-02-26T12:16:22.000Z</time>
      </trkpt>
      <trkpt lat="47.9235" lon="7.15849">
        <ele>440.9</ele>
        <time>2019-02-26T12:16:40.000Z</time>
      </trkpt>
      <trkpt lat="47.92359" lon="7.15808">
        <ele>443.5</ele>
        <time>2019-02-26T12:16:58.000Z</time>
      </trkpt>
      <trkpt lat="47.92336" lon="7.15796">
        <ele>439.2</ele>
        <time>2019-02-26T12:17:16.000Z</time>
      </trkpt>
      <trkpt lat="47.92346" lon="7.15777">
        <ele>441.8</ele>
        <time>2019-02-26T12:17:46.000Z</time>
      </trkpt>
      <trkpt lat="47.9235" lon="7.15802">
        <ele>441.7</ele>
        <time>2019-02-26T12:25:03.000Z</time>
      </trkpt>
      <trkpt lat="47.92365" lon="7.1578">
        <ele>445.4</ele>
        <time>2019-02-26T12:25:21.000Z</time>
      </trkpt>
      <trkpt lat="47.92371" lon="7.15759">
        <ele>446.6</ele>
        <time>2019-02-26T12:25:39.000Z</time>
      </trkpt>
      <trkpt lat="47.92364" lon="7.15765">
        <ele>444.8</ele>
        <time>2019-02-26T12:25:57.000Z</time>
      </trkpt>
      <trkpt lat="47.9236" lon="7.15719">
        <ele>444.1</ele>
        <time>2019-02-26T12:26:15.000Z</time>
      </trkpt>
      <trkpt lat="47.9237" lon="7.15712">
        <ele>446.1</ele>
        <time>2019-02-26T12:26:33.000Z</time>
      </trkpt>
      <trkpt lat="47.92374" lon="7.15725">
        <ele>445.9</ele>
        <time>2019-02-26T12:26:51.000Z</time>
      </trkpt>
      <trkpt lat="47.92358" lon="7.15726">
        <ele>443.5</ele>
        <time>2019-02-26T12:27:09.000Z</time>
      </trkpt>
      <trkpt lat="47.92401" lon="7.15713">
        <ele>450.5</ele>
        <time>2019-02-26T12:27:27.000Z</time>
      </trkpt>
      <trkpt lat="47.92384" lon="7.15763">
        <ele>450.5</ele>
        <time>2019-02-26T12:27:45.000Z</time>
      </trkpt>
      <trkpt lat="47.92388" lon="7.15777">
        <ele>453.6</ele>
        <time>2019-02-26T12:28:03.000Z</time>
      </trkpt>
      <trkpt lat="47.92368" lon="7.158">
        <ele>446.9</ele>
        <time>2019-02-26T12:28:21.000Z</time>
      </trkpt>
      <trkpt lat="47.92379" lon="7.15793">
        <ele>451.1</ele>
        <time>2019-02-26T12:28:39.000Z</time>
      </trkpt>
      <trkpt lat="47.92371" lon="7.15793">
        <ele>448</ele>
        <time>2019-02-26T12:28:57.000Z</time>
      </trkpt>
      <trkpt lat="47.9237" lon="7.15795">
        <ele>447.6</ele>
        <time>2019-02-26T12:29:14.000Z</time>
      </trkpt>
      <trkpt lat="47.92395" lon="7.15803">
        <ele>459.1</ele>
        <time>2019-02-26T12:29:32.000Z</time>
      </trkpt>
      <trkpt lat="47.92416" lon="7.15849">
        <ele>470.1</ele>
        <time>2019-02-26T12:29:50.000Z</time>
      </trkpt>
      <trkpt lat="47.92402" lon="7.15868">
        <ele>464.5</ele>
        <time>2019-02-26T12:30:08.000Z</time>
      </trkpt>
      <trkpt lat="47.924" lon="7.15881">
        <ele>464.7</ele>
        <time>2019-02-26T12:30:26.000Z</time>
      </trkpt>
      <trkpt lat="47.92404" lon="7.15877">
        <ele>465.4</ele>
        <time>2019-02-26T12:30:44.000Z</time>
      </trkpt>
      <trkpt lat="47.92406" lon="7.15879">
        <ele>465.8</ele>
        <time>2019-02-26T12:31:01.000Z</time>
      </trkpt>
      <trkpt lat="47.92406" lon="7.15875">
        <ele>465.8</ele>
        <time>2019-02-26T12:31:19.000Z</time>
      </trkpt>
      <trkpt lat="47.92405" lon="7.15874">
        <ele>465.5</ele>
        <time>2019-02-26T12:31:59.000Z</time>
      </trkpt>
      <trkpt lat="47.92391" lon="7.15864">
        <ele>460.3</ele>
        <time>2019-02-26T12:32:17.000Z</time>
      </trkpt>
      <trkpt lat="47.92394" lon="7.15871">
        <ele>462.3</ele>
        <time>2019-02-26T12:32:34.000Z</time>
      </trkpt>
      <trkpt lat="47.92395" lon="7.1587">
        <ele>462.5</ele>
        <time>2019-02-26T12:33:09.000Z</time>
      </trkpt>
      <trkpt lat="47.92397" lon="7.15869">
        <ele>463</ele>
        <time>2019-02-26T12:33:27.000Z</time>
      </trkpt>
      <trkpt lat="47.92398" lon="7.15868">
        <ele>463.2</ele>
        <time>2019-02-26T12:34:01.000Z</time>
      </trkpt>
      <trkpt lat="47.92401" lon="7.15869">
        <ele>464.2</ele>
        <time>2019-02-26T12:34:19.000Z</time>
      </trkpt>
      <trkpt lat="47.92403" lon="7.1587">
        <ele>464.9</ele>
        <time>2019-02-26T12:35:12.000Z</time>
      </trkpt>
      <trkpt lat="47.92401" lon="7.15871">
        <ele>464.3</ele>
        <time>2019-02-26T12:36:39.000Z</time>
      </trkpt>
      <trkpt lat="47.92401" lon="7.15872">
        <ele>464.4</ele>
        <time>2019-02-26T12:37:14.000Z</time>
      </trkpt>
      <trkpt lat="47.924" lon="7.15874">
        <ele>464.2</ele>
        <time>2019-02-26T12:37:49.000Z</time>
      </trkpt>
      <trkpt lat="47.92399" lon="7.15875">
        <ele>464</ele>
        <time>2019-02-26T12:38:41.000Z</time>
      </trkpt>
      <trkpt lat="47.92399" lon="7.15873">
        <ele>463.9</ele>
        <time>2019-02-26T12:40:44.000Z</time>
      </trkpt>
      <trkpt lat="47.924" lon="7.15873">
        <ele>464.2</ele>
        <time>2019-02-26T12:43:06.000Z</time>
      </trkpt>
      <trkpt lat="47.92402" lon="7.15869">
        <ele>464.5</ele>
        <time>2019-02-26T12:49:33.000Z</time>
      </trkpt>
      <trkpt lat="47.92404" lon="7.15865">
        <ele>465.1</ele>
        <time>2019-02-26T12:50:08.000Z</time>
      </trkpt>
      <trkpt lat="47.92402" lon="7.15866">
        <ele>464.4</ele>
        <time>2019-02-26T12:50:26.000Z</time>
      </trkpt>
      <trkpt lat="47.92401" lon="7.15867">
        <ele>464.1</ele>
        <time>2019-02-26T12:50:44.000Z</time>
      </trkpt>
      <trkpt lat="47.924" lon="7.15869">
        <ele>463.9</ele>
        <time>2019-02-26T12:51:02.000Z</time>
      </trkpt>
      <trkpt lat="47.924" lon="7.15868">
        <ele>463.8</ele>
        <time>2019-02-26T12:51:20.000Z</time>
      </trkpt>
      <trkpt lat="47.92402" lon="7.15862">
        <ele>464.2</ele>
        <time>2019-02-26T12:51:38.000Z</time>
      </trkpt>
      <trkpt lat="47.924" lon="7.15869">
        <ele>463.9</ele>
        <time>2019-02-26T12:51:56.000Z</time>
      </trkpt>
      <trkpt lat="47.9242" lon="7.15894">
        <ele>465.9</ele>
        <time>2019-02-26T12:52:14.000Z</time>
      </trkpt>
      <trkpt lat="47.92421" lon="7.15891">
        <ele>466.7</ele>
        <time>2019-02-26T12:52:32.000Z</time>
      </trkpt>
      <trkpt lat="47.92415" lon="7.15887">
        <ele>467</ele>
        <time>2019-02-26T12:52:50.000Z</time>
      </trkpt>
      <trkpt lat="47.92415" lon="7.15885">
        <ele>467.2</ele>
        <time>2019-02-26T12:53:07.000Z</time>
      </trkpt>
      <trkpt lat="47.92417" lon="7.15883">
        <ele>467.7</ele>
        <time>2019-02-26T12:53:25.000Z</time>
      </trkpt>
      <trkpt lat="47.92418" lon="7.15882">
        <ele>467.9</ele>
        <time>2019-02-26T12:53:40.606Z</time>
      </trkpt>
      <trkpt lat="47.92419" lon="7.15866">
        <ele>470</ele>
        <time>2019-02-26T12:53:59.000Z</time>
      </trkpt>
      <trkpt lat="47.9242" lon="7.15899">
        <ele>464.7</ele>
        <time>2019-02-26T12:54:16.000Z</time>
      </trkpt>
      <trkpt lat="47.92414" lon="7.15864">
        <ele>468.7</ele>
        <time>2019-02-26T12:54:34.000Z</time>
      </trkpt>
      <trkpt lat="47.92416" lon="7.15863">
        <ele>469.5</ele>
        <time>2019-02-26T12:54:51.000Z</time>
      </trkpt>
      <trkpt lat="47.92415" lon="7.1586">
        <ele>469.4</ele>
        <time>2019-02-26T12:55:26.000Z</time>
      </trkpt>
      <trkpt lat="47.92414" lon="7.15859">
        <ele>469</ele>
        <time>2019-02-26T12:56:00.000Z</time>
      </trkpt>
      <trkpt lat="47.92411" lon="7.15854">
        <ele>467.8</ele>
        <time>2019-02-26T12:56:35.000Z</time>
      </trkpt>
      <trkpt lat="47.9241" lon="7.15788">
        <ele>466.6</ele>
        <time>2019-02-26T12:56:53.000Z</time>
      </trkpt>
      <trkpt lat="47.92387" lon="7.15782">
        <ele>453.6</ele>
        <time>2019-02-26T12:57:11.000Z</time>
      </trkpt>
      <trkpt lat="47.92392" lon="7.15758">
        <ele>452.5</ele>
        <time>2019-02-26T12:57:29.000Z</time>
      </trkpt>
      <trkpt lat="47.92383" lon="7.15746">
        <ele>448.5</ele>
        <time>2019-02-26T12:57:47.000Z</time>
      </trkpt>
      <trkpt lat="47.92403" lon="7.15696">
        <ele>450.6</ele>
        <time>2019-02-26T12:58:05.000Z</time>
      </trkpt>
      <trkpt lat="47.92367" lon="7.15694">
        <ele>447.5</ele>
        <time>2019-02-26T12:58:23.000Z</time>
      </trkpt>
      <trkpt lat="47.92367" lon="7.15724">
        <ele>444.9</ele>
        <time>2019-02-26T12:58:41.000Z</time>
      </trkpt>
      <trkpt lat="47.92359" lon="7.15687">
        <ele>447.6</ele>
        <time>2019-02-26T12:58:59.000Z</time>
      </trkpt>
      <trkpt lat="47.92346" lon="7.1566">
        <ele>446.7</ele>
        <time>2019-02-26T12:59:17.000Z</time>
      </trkpt>
      <trkpt lat="47.9233" lon="7.15671">
        <ele>441.7</ele>
        <time>2019-02-26T12:59:35.000Z</time>
      </trkpt>
      <trkpt lat="47.9235" lon="7.15659">
        <ele>448.1</ele>
        <time>2019-02-26T12:59:53.000Z</time>
      </trkpt>
      <trkpt lat="47.92343" lon="7.15628">
        <ele>449.4</ele>
        <time>2019-02-26T13:00:11.000Z</time>
      </trkpt>
      <trkpt lat="47.9233" lon="7.15609">
        <ele>449.5</ele>
        <time>2019-02-26T13:00:29.000Z</time>
      </trkpt>
      <trkpt lat="47.92319" lon="7.15572">
        <ele>450.9</ele>
        <time>2019-02-26T13:00:47.000Z</time>
      </trkpt>
      <trkpt lat="47.92319" lon="7.15556">
        <ele>452.3</ele>
        <time>2019-02-26T13:01:05.000Z</time>
      </trkpt>
      <trkpt lat="47.92307" lon="7.15576">
        <ele>447.9</ele>
        <time>2019-02-26T13:01:23.000Z</time>
      </trkpt>
      <trkpt lat="47.92306" lon="7.15575">
        <ele>447.7</ele>
        <time>2019-02-26T13:01:40.000Z</time>
      </trkpt>
      <trkpt lat="47.92307" lon="7.1557">
        <ele>448.3</ele>
        <time>2019-02-26T13:01:58.000Z</time>
      </trkpt>
      <trkpt lat="47.92307" lon="7.15568">
        <ele>448.4</ele>
        <time>2019-02-26T13:02:13.620Z</time>
      </trkpt>
      <trkpt lat="47.92307" lon="7.15554">
        <ele>449.5</ele>
        <time>2019-02-26T13:02:32.000Z</time>
      </trkpt>
      <trkpt lat="47.92306" lon="7.15524">
        <ele>451.3</ele>
        <time>2019-02-26T13:02:50.000Z</time>
      </trkpt>
      <trkpt lat="47.92361" lon="7.15479">
        <ele>476.2</ele>
        <time>2019-02-26T13:03:07.000Z</time>
      </trkpt>
      <trkpt lat="47.92325" lon="7.15442">
        <ele>459</ele>
        <time>2019-02-26T13:03:26.000Z</time>
      </trkpt>
      <trkpt lat="47.92324" lon="7.15425">
        <ele>459.1</ele>
        <time>2019-02-26T13:03:44.000Z</time>
      </trkpt>
      <trkpt lat="47.92309" lon="7.15403">
        <ele>455.9</ele>
        <time>2019-02-26T13:04:02.000Z</time>
      </trkpt>
      <trkpt lat="47.92282" lon="7.15379">
        <ele>454.9</ele>
        <time>2019-02-26T13:04:20.000Z</time>
      </trkpt>
      <trkpt lat="47.92272" lon="7.1536">
        <ele>455.8</ele>
        <time>2019-02-26T13:04:38.000Z</time>
      </trkpt>
      <trkpt lat="47.92253" lon="7.15357">
        <ele>455.4</ele>
        <time>2019-02-26T13:04:56.000Z</time>
      </trkpt>
      <trkpt lat="47.92253" lon="7.15318">
        <ele>458.1</ele>
        <time>2019-02-26T13:05:14.000Z</time>
      </trkpt>
      <trkpt lat="47.92252" lon="7.15301">
        <ele>459.3</ele>
        <time>2019-02-26T13:05:32.000Z</time>
      </trkpt>
      <trkpt lat="47.92258" lon="7.15259">
        <ele>463.4</ele>
        <time>2019-02-26T13:05:50.000Z</time>
      </trkpt>
      <trkpt lat="47.92243" lon="7.15232">
        <ele>466.7</ele>
        <time>2019-02-26T13:06:08.000Z</time>
      </trkpt>
      <trkpt lat="47.92249" lon="7.15232">
        <ele>467.5</ele>
        <time>2019-02-26T13:06:28.000Z</time>
      </trkpt>
      <trkpt lat="47.92248" lon="7.1523">
        <ele>467.6</ele>
        <time>2019-02-26T13:06:45.000Z</time>
      </trkpt>
      <trkpt lat="47.92248" lon="7.15208">
        <ele>470.9</ele>
        <time>2019-02-26T13:07:03.000Z</time>
      </trkpt>
      <trkpt lat="47.92248" lon="7.15206">
        <ele>471.3</ele>
        <time>2019-02-26T13:07:18.626Z</time>
      </trkpt>
      <trkpt lat="47.92244" lon="7.15185">
        <ele>474.7</ele>
        <time>2019-02-26T13:07:37.000Z</time>
      </trkpt>
      <trkpt lat="47.92256" lon="7.15092">
        <ele>478.5</ele>
        <time>2019-02-26T13:07:55.000Z</time>
      </trkpt>
      <trkpt lat="47.92253" lon="7.15082">
        <ele>479.5</ele>
        <time>2019-02-26T13:08:13.000Z</time>
      </trkpt>
      <trkpt lat="47.9223" lon="7.15082">
        <ele>492.9</ele>
        <time>2019-02-26T13:08:31.000Z</time>
      </trkpt>
      <trkpt lat="47.92256" lon="7.15077">
        <ele>479.1</ele>
        <time>2019-02-26T13:08:51.000Z</time>
      </trkpt>
      <trkpt lat="47.9226" lon="7.15005">
        <ele>483.6</ele>
        <time>2019-02-26T13:09:11.000Z</time>
      </trkpt>
      <trkpt lat="47.9226" lon="7.14976">
        <ele>485.9</ele>
        <time>2019-02-26T13:09:29.000Z</time>
      </trkpt>
      <trkpt lat="47.92261" lon="7.14979">
        <ele>485.5</ele>
        <time>2019-02-26T13:09:47.000Z</time>
      </trkpt>
      <trkpt lat="47.92257" lon="7.14951">
        <ele>485.4</ele>
        <time>2019-02-26T13:10:05.000Z</time>
      </trkpt>
      <trkpt lat="47.92251" lon="7.14899">
        <ele>487</ele>
        <time>2019-02-26T13:10:25.000Z</time>
      </trkpt>
      <trkpt lat="47.92297" lon="7.14826">
        <ele>512.5</ele>
        <time>2019-02-26T13:10:43.000Z</time>
      </trkpt>
      <trkpt lat="47.92263" lon="7.14847">
        <ele>500.1</ele>
        <time>2019-02-26T13:11:02.000Z</time>
      </trkpt>
      <trkpt lat="47.92252" lon="7.14836">
        <ele>499.8</ele>
        <time>2019-02-26T13:11:20.000Z</time>
      </trkpt>
      <trkpt lat="47.92235" lon="7.14834">
        <ele>495.6</ele>
        <time>2019-02-26T13:11:38.000Z</time>
      </trkpt>
      <trkpt lat="47.92234" lon="7.14786">
        <ele>511.5</ele>
        <time>2019-02-26T13:11:58.000Z</time>
      </trkpt>
      <trkpt lat="47.92196" lon="7.14794">
        <ele>503.9</ele>
        <time>2019-02-26T13:12:16.000Z</time>
      </trkpt>
      <trkpt lat="47.92193" lon="7.14775">
        <ele>505.7</ele>
        <time>2019-02-26T13:12:34.000Z</time>
      </trkpt>
      <trkpt lat="47.92188" lon="7.14767">
        <ele>509.9</ele>
        <time>2019-02-26T13:12:51.000Z</time>
      </trkpt>
      <trkpt lat="47.92186" lon="7.14747">
        <ele>513.2</ele>
        <time>2019-02-26T13:13:09.000Z</time>
      </trkpt>
      <trkpt lat="47.92184" lon="7.14716">
        <ele>522.6</ele>
        <time>2019-02-26T13:13:27.000Z</time>
      </trkpt>
      <trkpt lat="47.92185" lon="7.1471">
        <ele>524.3</ele>
        <time>2019-02-26T13:13:45.000Z</time>
      </trkpt>
      <trkpt lat="47.92139" lon="7.14666">
        <ele>525.8</ele>
        <time>2019-02-26T13:14:03.000Z</time>
      </trkpt>
      <trkpt lat="47.92138" lon="7.14633">
        <ele>519.9</ele>
        <time>2019-02-26T13:14:21.000Z</time>
      </trkpt>
      <trkpt lat="47.92138" lon="7.146">
        <ele>524.2</ele>
        <time>2019-02-26T13:14:39.000Z</time>
      </trkpt>
      <trkpt lat="47.92153" lon="7.1455">
        <ele>544.1</ele>
        <time>2019-02-26T13:14:59.000Z</time>
      </trkpt>
      <trkpt lat="47.9212" lon="7.14542">
        <ele>530.5</ele>
        <time>2019-02-26T13:15:17.000Z</time>
      </trkpt>
      <trkpt lat="47.9212" lon="7.1453">
        <ele>531.6</ele>
        <time>2019-02-26T13:15:35.000Z</time>
      </trkpt>
      <trkpt lat="47.92115" lon="7.14508">
        <ele>531</ele>
        <time>2019-02-26T13:15:53.000Z</time>
      </trkpt>
      <trkpt lat="47.92113" lon="7.14507">
        <ele>530.3</ele>
        <time>2019-02-26T13:16:10.000Z</time>
      </trkpt>
      <trkpt lat="47.92124" lon="7.14446">
        <ele>539.1</ele>
        <time>2019-02-26T13:16:28.000Z</time>
      </trkpt>
      <trkpt lat="47.92117" lon="7.14433">
        <ele>538</ele>
        <time>2019-02-26T13:16:46.000Z</time>
      </trkpt>
      <trkpt lat="47.92134" lon="7.14401">
        <ele>542.1</ele>
        <time>2019-02-26T13:17:04.000Z</time>
      </trkpt>
      <trkpt lat="47.92096" lon="7.14379">
        <ele>543</ele>
        <time>2019-02-26T13:17:22.000Z</time>
      </trkpt>
      <trkpt lat="47.92068" lon="7.14381">
        <ele>542.9</ele>
        <time>2019-02-26T13:17:40.000Z</time>
      </trkpt>
      <trkpt lat="47.92089" lon="7.14339">
        <ele>545.9</ele>
        <time>2019-02-26T13:17:58.000Z</time>
      </trkpt>
      <trkpt lat="47.92079" lon="7.14314">
        <ele>546.1</ele>
        <time>2019-02-26T13:18:16.000Z</time>
      </trkpt>
      <trkpt lat="47.92095" lon="7.14276">
        <ele>552.9</ele>
        <time>2019-02-26T13:18:34.000Z</time>
      </trkpt>
      <trkpt lat="47.92089" lon="7.14239">
        <ele>554</ele>
        <time>2019-02-26T13:18:52.000Z</time>
      </trkpt>
      <trkpt lat="47.92088" lon="7.14222">
        <ele>555</ele>
        <time>2019-02-26T13:19:10.000Z</time>
      </trkpt>
      <trkpt lat="47.92088" lon="7.14195">
        <ele>558.9</ele>
        <time>2019-02-26T13:19:28.000Z</time>
      </trkpt>
      <trkpt lat="47.92107" lon="7.14179">
        <ele>568.4</ele>
        <time>2019-02-26T13:19:46.000Z</time>
      </trkpt>
      <trkpt lat="47.92067" lon="7.14144">
        <ele>559.3</ele>
        <time>2019-02-26T13:20:06.000Z</time>
      </trkpt>
      <trkpt lat="47.92086" lon="7.14106">
        <ele>563.4</ele>
        <time>2019-02-26T13:20:23.000Z</time>
      </trkpt>
      <trkpt lat="47.92093" lon="7.14035">
        <ele>571.2</ele>
        <time>2019-02-26T13:20:41.000Z</time>
      </trkpt>
      <trkpt lat="47.92082" lon="7.14065">
        <ele>566.7</ele>
        <time>2019-02-26T13:21:01.000Z</time>
      </trkpt>
      <trkpt lat="47.92094" lon="7.1403">
        <ele>571.6</ele>
        <time>2019-02-26T13:21:18.000Z</time>
      </trkpt>
      <trkpt lat="47.92081" lon="7.14006">
        <ele>576.9</ele>
        <time>2019-02-26T13:21:36.000Z</time>
      </trkpt>
      <trkpt lat="47.92058" lon="7.14018">
        <ele>574.8</ele>
        <time>2019-02-26T13:21:54.000Z</time>
      </trkpt>
      <trkpt lat="47.92036" lon="7.14022">
        <ele>573.1</ele>
        <time>2019-02-26T13:22:12.000Z</time>
      </trkpt>
      <trkpt lat="47.92031" lon="7.14009">
        <ele>576.4</ele>
        <time>2019-02-26T13:22:30.000Z</time>
      </trkpt>
      <trkpt lat="47.92004" lon="7.13973">
        <ele>583.4</ele>
        <time>2019-02-26T13:22:50.000Z</time>
      </trkpt>
      <trkpt lat="47.9198" lon="7.13982">
        <ele>580.6</ele>
        <time>2019-02-26T13:23:08.000Z</time>
      </trkpt>
      <trkpt lat="47.91977" lon="7.13983">
        <ele>580.4</ele>
        <time>2019-02-26T13:23:25.000Z</time>
      </trkpt>
      <trkpt lat="47.91941" lon="7.14001">
        <ele>577.1</ele>
        <time>2019-02-26T13:23:43.000Z</time>
      </trkpt>
      <trkpt lat="47.91919" lon="7.13945">
        <ele>589.8</ele>
        <time>2019-02-26T13:24:01.000Z</time>
      </trkpt>
      <trkpt lat="47.91929" lon="7.13907">
        <ele>600.6</ele>
        <time>2019-02-26T13:24:19.000Z</time>
      </trkpt>
      <trkpt lat="47.91912" lon="7.13952">
        <ele>588.1</ele>
        <time>2019-02-26T13:24:37.000Z</time>
      </trkpt>
      <trkpt lat="47.91865" lon="7.13933">
        <ele>595.2</ele>
        <time>2019-02-26T13:24:57.000Z</time>
      </trkpt>
      <trkpt lat="47.91871" lon="7.13934">
        <ele>594.7</ele>
        <time>2019-02-26T13:25:15.000Z</time>
      </trkpt>
      <trkpt lat="47.9183" lon="7.13962">
        <ele>594.1</ele>
        <time>2019-02-26T13:25:33.000Z</time>
      </trkpt>
      <trkpt lat="47.91809" lon="7.13934">
        <ele>600.4</ele>
        <time>2019-02-26T13:25:51.000Z</time>
      </trkpt>
      <trkpt lat="47.91811" lon="7.13928">
        <ele>601.2</ele>
        <time>2019-02-26T13:26:09.000Z</time>
      </trkpt>
      <trkpt lat="47.91799" lon="7.13907">
        <ele>605.9</ele>
        <time>2019-02-26T13:26:27.000Z</time>
      </trkpt>
      <trkpt lat="47.91756" lon="7.13946">
        <ele>604.2</ele>
        <time>2019-02-26T13:26:45.000Z</time>
      </trkpt>
      <trkpt lat="47.91759" lon="7.13922">
        <ele>607.3</ele>
        <time>2019-02-26T13:27:05.000Z</time>
      </trkpt>
      <trkpt lat="47.91728" lon="7.13919">
        <ele>611.8</ele>
        <time>2019-02-26T13:27:23.000Z</time>
      </trkpt>
      <trkpt lat="47.91731" lon="7.13911">
        <ele>612.6</ele>
        <time>2019-02-26T13:27:41.000Z</time>
      </trkpt>
      <trkpt lat="47.91728" lon="7.13912">
        <ele>612.9</ele>
        <time>2019-02-26T13:27:59.000Z</time>
      </trkpt>
      <trkpt lat="47.91671" lon="7.13922">
        <ele>617.8</ele>
        <time>2019-02-26T13:28:17.000Z</time>
      </trkpt>
      <trkpt lat="47.91647" lon="7.13926">
        <ele>620.5</ele>
        <time>2019-02-26T13:28:35.000Z</time>
      </trkpt>
      <trkpt lat="47.91646" lon="7.13934">
        <ele>619.5</ele>
        <time>2019-02-26T13:28:53.000Z</time>
      </trkpt>
      <trkpt lat="47.91625" lon="7.13971">
        <ele>628.7</ele>
        <time>2019-02-26T13:29:13.000Z</time>
      </trkpt>
      <trkpt lat="47.9166" lon="7.13927">
        <ele>618.5</ele>
        <time>2019-02-26T13:29:31.000Z</time>
      </trkpt>
      <trkpt lat="47.91659" lon="7.13904">
        <ele>622.4</ele>
        <time>2019-02-26T13:29:51.000Z</time>
      </trkpt>
      <trkpt lat="47.9166" lon="7.13904">
        <ele>622.2</ele>
        <time>2019-02-26T13:30:45.000Z</time>
      </trkpt>
      <trkpt lat="47.91659" lon="7.13903">
        <ele>622.6</ele>
        <time>2019-02-26T13:31:05.000Z</time>
      </trkpt>
      <trkpt lat="47.9165" lon="7.13904">
        <ele>623.7</ele>
        <time>2019-02-26T13:31:35.000Z</time>
      </trkpt>
      <trkpt lat="47.91599" lon="7.13984">
        <ele>641.6</ele>
        <time>2019-02-26T13:31:55.000Z</time>
      </trkpt>
      <trkpt lat="47.91593" lon="7.14016">
        <ele>657.3</ele>
        <time>2019-02-26T13:32:16.000Z</time>
      </trkpt>
      <trkpt lat="47.91554" lon="7.13955">
        <ele>642.8</ele>
        <time>2019-02-26T13:32:36.000Z</time>
      </trkpt>
      <trkpt lat="47.91505" lon="7.13927">
        <ele>648</ele>
        <time>2019-02-26T13:32:54.000Z</time>
      </trkpt>
      <trkpt lat="47.91505" lon="7.13902">
        <ele>647.2</ele>
        <time>2019-02-26T13:33:12.000Z</time>
      </trkpt>
      <trkpt lat="47.91486" lon="7.13904">
        <ele>650</ele>
        <time>2019-02-26T13:33:30.000Z</time>
      </trkpt>
      <trkpt lat="47.91498" lon="7.13902">
        <ele>648.3</ele>
        <time>2019-02-26T13:33:49.000Z</time>
      </trkpt>
      <trkpt lat="47.91524" lon="7.13919">
        <ele>642.2</ele>
        <time>2019-02-26T13:34:10.000Z</time>
      </trkpt>
      <trkpt lat="47.91432" lon="7.13923">
        <ele>672</ele>
        <time>2019-02-26T13:34:28.000Z</time>
      </trkpt>
      <trkpt lat="47.91423" lon="7.1387">
        <ele>664.7</ele>
        <time>2019-02-26T13:34:46.000Z</time>
      </trkpt>
      <trkpt lat="47.91463" lon="7.13855">
        <ele>658.7</ele>
        <time>2019-02-26T13:35:04.000Z</time>
      </trkpt>
      <trkpt lat="47.91491" lon="7.1383">
        <ele>660.5</ele>
        <time>2019-02-26T13:35:24.000Z</time>
      </trkpt>
      <trkpt lat="47.91492" lon="7.13791">
        <ele>664.4</ele>
        <time>2019-02-26T13:35:42.000Z</time>
      </trkpt>
      <trkpt lat="47.91492" lon="7.13786">
        <ele>665.2</ele>
        <time>2019-02-26T13:36:00.000Z</time>
      </trkpt>
      <trkpt lat="47.91491" lon="7.13788">
        <ele>665</ele>
        <time>2019-02-26T13:36:18.000Z</time>
      </trkpt>
      <trkpt lat="47.91491" lon="7.13785">
        <ele>665.5</ele>
        <time>2019-02-26T13:36:36.000Z</time>
      </trkpt>
      <trkpt lat="47.9149" lon="7.13785">
        <ele>665.7</ele>
        <time>2019-02-26T13:37:12.000Z</time>
      </trkpt>
      <trkpt lat="47.91486" lon="7.13787">
        <ele>666</ele>
        <time>2019-02-26T13:37:32.000Z</time>
      </trkpt>
      <trkpt lat="47.91481" lon="7.13788">
        <ele>666.7</ele>
        <time>2019-02-26T13:37:50.000Z</time>
      </trkpt>
      <trkpt lat="47.91464" lon="7.1379">
        <ele>669.8</ele>
        <time>2019-02-26T13:38:10.000Z</time>
      </trkpt>
      <trkpt lat="47.91452" lon="7.13789">
        <ele>672.9</ele>
        <time>2019-02-26T13:38:28.000Z</time>
      </trkpt>
      <trkpt lat="47.91448" lon="7.13791">
        <ele>673.7</ele>
        <time>2019-02-26T13:38:46.000Z</time>
      </trkpt>
      <trkpt lat="47.91442" lon="7.13789">
        <ele>675.1</ele>
        <time>2019-02-26T13:39:04.000Z</time>
      </trkpt>
      <trkpt lat="47.91341" lon="7.13778">
        <ele>686.2</ele>
        <time>2019-02-26T13:39:24.000Z</time>
      </trkpt>
      <trkpt lat="47.91321" lon="7.13761">
        <ele>690.1</ele>
        <time>2019-02-26T13:39:42.000Z</time>
      </trkpt>
      <trkpt lat="47.91312" lon="7.13741">
        <ele>693</ele>
        <time>2019-02-26T13:40:02.000Z</time>
      </trkpt>
      <trkpt lat="47.91285" lon="7.13741">
        <ele>698.2</ele>
        <time>2019-02-26T13:40:20.000Z</time>
      </trkpt>
      <trkpt lat="47.91301" lon="7.13718">
        <ele>697</ele>
        <time>2019-02-26T13:40:38.000Z</time>
      </trkpt>
      <trkpt lat="47.91295" lon="7.13662">
        <ele>702.8</ele>
        <time>2019-02-26T13:40:56.000Z</time>
      </trkpt>
      <trkpt lat="47.91292" lon="7.13668">
        <ele>702.9</ele>
        <time>2019-02-26T13:41:13.000Z</time>
      </trkpt>
      <trkpt lat="47.91288" lon="7.13677">
        <ele>702.6</ele>
        <time>2019-02-26T13:41:31.000Z</time>
      </trkpt>
      <trkpt lat="47.91283" lon="7.13683">
        <ele>702.8</ele>
        <time>2019-02-26T13:41:49.000Z</time>
      </trkpt>
      <trkpt lat="47.91281" lon="7.13691">
        <ele>702.7</ele>
        <time>2019-02-26T13:42:07.000Z</time>
      </trkpt>
      <trkpt lat="47.91279" lon="7.13696">
        <ele>702.6</ele>
        <time>2019-02-26T13:42:25.000Z</time>
      </trkpt>
      <trkpt lat="47.91277" lon="7.13703">
        <ele>701.8</ele>
        <time>2019-02-26T13:42:43.000Z</time>
      </trkpt>
      <trkpt lat="47.91273" lon="7.13718">
        <ele>700.1</ele>
        <time>2019-02-26T13:43:01.000Z</time>
      </trkpt>
      <trkpt lat="47.91271" lon="7.13723">
        <ele>699.8</ele>
        <time>2019-02-26T13:43:19.000Z</time>
      </trkpt>
      <trkpt lat="47.91271" lon="7.13727">
        <ele>699.9</ele>
        <time>2019-02-26T13:43:37.000Z</time>
      </trkpt>
      <trkpt lat="47.91274" lon="7.13729">
        <ele>699.7</ele>
        <time>2019-02-26T13:43:55.000Z</time>
      </trkpt>
      <trkpt lat="47.91279" lon="7.13735">
        <ele>699.2</ele>
        <time>2019-02-26T13:44:13.000Z</time>
      </trkpt>
      <trkpt lat="47.91285" lon="7.13805">
        <ele>698.1</ele>
        <time>2019-02-26T13:44:31.000Z</time>
      </trkpt>
      <trkpt lat="47.91284" lon="7.13743">
        <ele>698.4</ele>
        <time>2019-02-26T13:44:49.000Z</time>
      </trkpt>
      <trkpt lat="47.91296" lon="7.13809">
        <ele>694.1</ele>
        <time>2019-02-26T13:45:07.000Z</time>
      </trkpt>
      <trkpt lat="47.9129" lon="7.13811">
        <ele>696.5</ele>
        <time>2019-02-26T13:45:25.000Z</time>
      </trkpt>
      <trkpt lat="47.9127" lon="7.13759">
        <ele>701.2</ele>
        <time>2019-02-26T13:45:43.000Z</time>
      </trkpt>
      <trkpt lat="47.9128" lon="7.13743">
        <ele>699.3</ele>
        <time>2019-02-26T13:46:01.000Z</time>
      </trkpt>
      <trkpt lat="47.91283" lon="7.13731">
        <ele>698.5</ele>
        <time>2019-02-26T13:46:19.000Z</time>
      </trkpt>
      <trkpt lat="47.91252" lon="7.13718">
        <ele>702.3</ele>
        <time>2019-02-26T13:46:37.000Z</time>
      </trkpt>
      <trkpt lat="47.91261" lon="7.13713">
        <ele>701.9</ele>
        <time>2019-02-26T13:46:55.000Z</time>
      </trkpt>
      <trkpt lat="47.91265" lon="7.13691">
        <ele>704</ele>
        <time>2019-02-26T13:47:13.000Z</time>
      </trkpt>
      <trkpt lat="47.91244" lon="7.13692">
        <ele>705.8</ele>
        <time>2019-02-26T13:47:31.000Z</time>
      </trkpt>
      <trkpt lat="47.91221" lon="7.13726">
        <ele>709.4</ele>
        <time>2019-02-26T13:47:49.000Z</time>
      </trkpt>
      <trkpt lat="47.91223" lon="7.1374">
        <ele>709.4</ele>
        <time>2019-02-26T13:48:07.000Z</time>
      </trkpt>
      <trkpt lat="47.91251" lon="7.1372">
        <ele>702.1</ele>
        <time>2019-02-26T13:48:27.000Z</time>
      </trkpt>
      <trkpt lat="47.91253" lon="7.13712">
        <ele>702.8</ele>
        <time>2019-02-26T13:48:45.000Z</time>
      </trkpt>
      <trkpt lat="47.91232" lon="7.13689">
        <ele>707.5</ele>
        <time>2019-02-26T13:49:05.000Z</time>
      </trkpt>
      <trkpt lat="47.9123" lon="7.13692">
        <ele>707.8</ele>
        <time>2019-02-26T13:49:22.000Z</time>
      </trkpt>
      <trkpt lat="47.91229" lon="7.13694">
        <ele>708</ele>
        <time>2019-02-26T13:49:42.000Z</time>
      </trkpt>
      <trkpt lat="47.91225" lon="7.13695">
        <ele>708.6</ele>
        <time>2019-02-26T13:50:00.000Z</time>
      </trkpt>
      <trkpt lat="47.91218" lon="7.13701">
        <ele>709.8</ele>
        <time>2019-02-26T13:50:20.000Z</time>
      </trkpt>
      <trkpt lat="47.91215" lon="7.13704">
        <ele>710.4</ele>
        <time>2019-02-26T13:50:38.000Z</time>
      </trkpt>
      <trkpt lat="47.91219" lon="7.13702">
        <ele>709.6</ele>
        <time>2019-02-26T13:50:56.000Z</time>
      </trkpt>
      <trkpt lat="47.91219" lon="7.13705">
        <ele>709.6</ele>
        <time>2019-02-26T13:51:19.000Z</time>
      </trkpt>
      <trkpt lat="47.91203" lon="7.13708">
        <ele>712.8</ele>
        <time>2019-02-26T13:51:39.000Z</time>
      </trkpt>
      <trkpt lat="47.91202" lon="7.13711">
        <ele>713.1</ele>
        <time>2019-02-26T13:51:59.000Z</time>
      </trkpt>
      <trkpt lat="47.91199" lon="7.13708">
        <ele>713.6</ele>
        <time>2019-02-26T13:52:55.000Z</time>
      </trkpt>
      <trkpt lat="47.91159" lon="7.13737">
        <ele>722</ele>
        <time>2019-02-26T13:53:37.000Z</time>
      </trkpt>
      <trkpt lat="47.91136" lon="7.1374">
        <ele>726.7</ele>
        <time>2019-02-26T13:53:58.000Z</time>
      </trkpt>
      <trkpt lat="47.91121" lon="7.13733">
        <ele>730.7</ele>
        <time>2019-02-26T13:54:16.000Z</time>
      </trkpt>
      <trkpt lat="47.91105" lon="7.13701">
        <ele>740.7</ele>
        <time>2019-02-26T13:54:37.000Z</time>
      </trkpt>
      <trkpt lat="47.91087" lon="7.13736">
        <ele>739.5</ele>
        <time>2019-02-26T13:54:57.000Z</time>
      </trkpt>
      <trkpt lat="47.91073" lon="7.13722">
        <ele>746.4</ele>
        <time>2019-02-26T13:55:15.000Z</time>
      </trkpt>
      <trkpt lat="47.91044" lon="7.13755">
        <ele>750.3</ele>
        <time>2019-02-26T13:55:34.000Z</time>
      </trkpt>
      <trkpt lat="47.91048" lon="7.13794">
        <ele>749.4</ele>
        <time>2019-02-26T13:55:54.000Z</time>
      </trkpt>
      <trkpt lat="47.91031" lon="7.1376">
        <ele>753.9</ele>
        <time>2019-02-26T13:56:12.000Z</time>
      </trkpt>
      <trkpt lat="47.91019" lon="7.13745">
        <ele>759.7</ele>
        <time>2019-02-26T13:56:30.000Z</time>
      </trkpt>
      <trkpt lat="47.91005" lon="7.13795">
        <ele>761.2</ele>
        <time>2019-02-26T13:56:52.000Z</time>
      </trkpt>
      <trkpt lat="47.91011" lon="7.1374">
        <ele>763.2</ele>
        <time>2019-02-26T13:57:10.000Z</time>
      </trkpt>
      <trkpt lat="47.91002" lon="7.1375">
        <ele>764.4</ele>
        <time>2019-02-26T13:57:30.000Z</time>
      </trkpt>
      <trkpt lat="47.90991" lon="7.13782">
        <ele>765.1</ele>
        <time>2019-02-26T13:57:48.000Z</time>
      </trkpt>
      <trkpt lat="47.90963" lon="7.13777">
        <ele>774.1</ele>
        <time>2019-02-26T13:58:08.000Z</time>
      </trkpt>
      <trkpt lat="47.90954" lon="7.13781">
        <ele>777</ele>
        <time>2019-02-26T13:58:26.000Z</time>
      </trkpt>
      <trkpt lat="47.90953" lon="7.13781">
        <ele>777.3</ele>
        <time>2019-02-26T13:58:46.000Z</time>
      </trkpt>
      <trkpt lat="47.90954" lon="7.13782">
        <ele>777.1</ele>
        <time>2019-02-26T13:59:04.000Z</time>
      </trkpt>
      <trkpt lat="47.90957" lon="7.13788">
        <ele>776.3</ele>
        <time>2019-02-26T13:59:22.000Z</time>
      </trkpt>
      <trkpt lat="47.90959" lon="7.13789">
        <ele>775.7</ele>
        <time>2019-02-26T14:00:00.000Z</time>
      </trkpt>
      <trkpt lat="47.90952" lon="7.13795">
        <ele>778.2</ele>
        <time>2019-02-26T14:00:18.000Z</time>
      </trkpt>
      <trkpt lat="47.90882" lon="7.14046">
        <ele>873.5</ele>
        <time>2019-02-26T14:00:55.000Z</time>
      </trkpt>
      <trkpt lat="47.90879" lon="7.14053">
        <ele>877.1</ele>
        <time>2019-02-26T14:01:15.000Z</time>
      </trkpt>
      <trkpt lat="47.9088" lon="7.14048">
        <ele>875</ele>
        <time>2019-02-26T14:01:35.000Z</time>
      </trkpt>
      <trkpt lat="47.9088" lon="7.14009">
        <ele>861.4</ele>
        <time>2019-02-26T14:01:53.000Z</time>
      </trkpt>
      <trkpt lat="47.90882" lon="7.13994">
        <ele>855.6</ele>
        <time>2019-02-26T14:02:11.000Z</time>
      </trkpt>
      <trkpt lat="47.90828" lon="7.1394">
        <ele>858.9</ele>
        <time>2019-02-26T14:02:31.000Z</time>
      </trkpt>
      <trkpt lat="47.90842" lon="7.13917">
        <ele>846.7</ele>
        <time>2019-02-26T14:02:51.000Z</time>
      </trkpt>
      <trkpt lat="47.9085" lon="7.13897">
        <ele>836.6</ele>
        <time>2019-02-26T14:03:09.000Z</time>
      </trkpt>
      <trkpt lat="47.90856" lon="7.13896">
        <ele>833.7</ele>
        <time>2019-02-26T14:03:50.000Z</time>
      </trkpt>
      <trkpt lat="47.9088" lon="7.1389">
        <ele>822.6</ele>
        <time>2019-02-26T14:04:15.000Z</time>
      </trkpt>
      <trkpt lat="47.90888" lon="7.13886">
        <ele>818.5</ele>
        <time>2019-02-26T14:04:35.000Z</time>
      </trkpt>
      <trkpt lat="47.90916" lon="7.13899">
        <ele>814.5</ele>
        <time>2019-02-26T14:04:55.000Z</time>
      </trkpt>
      <trkpt lat="47.90936" lon="7.1392">
        <ele>814.1</ele>
        <time>2019-02-26T14:05:13.000Z</time>
      </trkpt>
      <trkpt lat="47.90961" lon="7.13945">
        <ele>813.2</ele>
        <time>2019-02-26T14:05:31.000Z</time>
      </trkpt>
      <trkpt lat="47.90986" lon="7.13999">
        <ele>824.2</ele>
        <time>2019-02-26T14:05:49.000Z</time>
      </trkpt>
      <trkpt lat="47.9097" lon="7.14028">
        <ele>837.6</ele>
        <time>2019-02-26T14:06:07.000Z</time>
      </trkpt>
      <trkpt lat="47.90978" lon="7.14035">
        <ele>837.9</ele>
        <time>2019-02-26T14:06:25.000Z</time>
      </trkpt>
      <trkpt lat="47.90994" lon="7.14044">
        <ele>837.4</ele>
        <time>2019-02-26T14:06:44.000Z</time>
      </trkpt>
      <trkpt lat="47.90982" lon="7.14041">
        <ele>838.9</ele>
        <time>2019-02-26T14:07:04.000Z</time>
      </trkpt>
      <trkpt lat="47.90951" lon="7.14036">
        <ele>844.9</ele>
        <time>2019-02-26T14:07:22.000Z</time>
      </trkpt>
      <trkpt lat="47.90927" lon="7.14041">
        <ele>855.2</ele>
        <time>2019-02-26T14:07:40.000Z</time>
      </trkpt>
      <trkpt lat="47.90952" lon="7.13996">
        <ele>832.6</ele>
        <time>2019-02-26T14:07:58.000Z</time>
      </trkpt>
      <trkpt lat="47.90933" lon="7.13981">
        <ele>834.6</ele>
        <time>2019-02-26T14:08:16.000Z</time>
      </trkpt>
      <trkpt lat="47.90891" lon="7.13995">
        <ele>852.9</ele>
        <time>2019-02-26T14:08:34.000Z</time>
      </trkpt>
      <trkpt lat="47.90889" lon="7.13979">
        <ele>848.9</ele>
        <time>2019-02-26T14:08:52.000Z</time>
      </trkpt>
      <trkpt lat="47.90891" lon="7.13961">
        <ele>842.3</ele>
        <time>2019-02-26T14:09:11.000Z</time>
      </trkpt>
      <trkpt lat="47.90882" lon="7.13944">
        <ele>839.3</ele>
        <time>2019-02-26T14:09:29.000Z</time>
      </trkpt>
      <trkpt lat="47.90863" lon="7.13944">
        <ele>846.2</ele>
        <time>2019-02-26T14:09:49.000Z</time>
      </trkpt>
      <trkpt lat="47.90819" lon="7.13915">
        <ele>855.8</ele>
        <time>2019-02-26T14:10:09.000Z</time>
      </trkpt>
      <trkpt lat="47.90773" lon="7.13938">
        <ele>884.3</ele>
        <time>2019-02-26T14:10:27.000Z</time>
      </trkpt>
      <trkpt lat="47.90754" lon="7.13878">
        <ele>887.9</ele>
        <time>2019-02-26T14:10:45.000Z</time>
      </trkpt>
      <trkpt lat="47.90775" lon="7.13843">
        <ele>874.3</ele>
        <time>2019-02-26T14:11:03.000Z</time>
      </trkpt>
      <trkpt lat="47.90785" lon="7.13799">
        <ele>868.8</ele>
        <time>2019-02-26T14:11:29.000Z</time>
      </trkpt>
      <trkpt lat="47.90782" lon="7.13796">
        <ele>870.5</ele>
        <time>2019-02-26T14:11:39.000Z</time>
      </trkpt>
      <trkpt lat="47.90778" lon="7.13795">
        <ele>872.9</ele>
        <time>2019-02-26T14:11:49.000Z</time>
      </trkpt>
      <trkpt lat="47.90779" lon="7.13794">
        <ele>872.3</ele>
        <time>2019-02-26T14:12:01.000Z</time>
      </trkpt>
      <trkpt lat="47.90782" lon="7.13796">
        <ele>870.5</ele>
        <time>2019-02-26T14:12:11.000Z</time>
      </trkpt>
      <trkpt lat="47.90782" lon="7.13797">
        <ele>870.5</ele>
        <time>2019-02-26T14:12:56.000Z</time>
      </trkpt>
      <trkpt lat="47.90784" lon="7.13801">
        <ele>869.4</ele>
        <time>2019-02-26T14:13:06.000Z</time>
      </trkpt>
      <trkpt lat="47.90785" lon="7.13803">
        <ele>868.8</ele>
        <time>2019-02-26T14:13:16.000Z</time>
      </trkpt>
      <trkpt lat="47.90786" lon="7.13802">
        <ele>868.2</ele>
        <time>2019-02-26T14:13:26.000Z</time>
      </trkpt>
      <trkpt lat="47.90785" lon="7.13799">
        <ele>868.8</ele>
        <time>2019-02-26T14:13:36.000Z</time>
      </trkpt>
      <trkpt lat="47.90785" lon="7.13801">
        <ele>868.8</ele>
        <time>2019-02-26T14:13:46.000Z</time>
      </trkpt>
      <trkpt lat="47.90784" lon="7.138">
        <ele>869.4</ele>
        <time>2019-02-26T14:14:24.000Z</time>
      </trkpt>
      <trkpt lat="47.90782" lon="7.13802">
        <ele>870.5</ele>
        <time>2019-02-26T14:14:34.000Z</time>
      </trkpt>
      <trkpt lat="47.90784" lon="7.138">
        <ele>869.4</ele>
        <time>2019-02-26T14:14:44.000Z</time>
      </trkpt>
      <trkpt lat="47.90785" lon="7.13802">
        <ele>868.8</ele>
        <time>2019-02-26T14:14:54.000Z</time>
      </trkpt>
      <trkpt lat="47.90785" lon="7.138">
        <ele>868.8</ele>
        <time>2019-02-26T14:15:06.000Z</time>
      </trkpt>
      <trkpt lat="47.90778" lon="7.1379">
        <ele>872.9</ele>
        <time>2019-02-26T14:15:16.000Z</time>
      </trkpt>
      <trkpt lat="47.9078" lon="7.13789">
        <ele>871.7</ele>
        <time>2019-02-26T14:15:26.000Z</time>
      </trkpt>
      <trkpt lat="47.90781" lon="7.13789">
        <ele>871.1</ele>
        <time>2019-02-26T14:16:05.000Z</time>
      </trkpt>
      <trkpt lat="47.90781" lon="7.13787">
        <ele>871.1</ele>
        <time>2019-02-26T14:16:15.000Z</time>
      </trkpt>
      <trkpt lat="47.9078" lon="7.13781">
        <ele>871.6</ele>
        <time>2019-02-26T14:16:25.000Z</time>
      </trkpt>
      <trkpt lat="47.90778" lon="7.13778">
        <ele>872.9</ele>
        <time>2019-02-26T14:16:35.000Z</time>
      </trkpt>
      <trkpt lat="47.90774" lon="7.13766">
        <ele>874.8</ele>
        <time>2019-02-26T14:16:53.000Z</time>
      </trkpt>
      <trkpt lat="47.90773" lon="7.13762">
        <ele>875.2</ele>
        <time>2019-02-26T14:17:10.000Z</time>
      </trkpt>
      <trkpt lat="47.90754" lon="7.13752">
        <ele>885</ele>
        <time>2019-02-26T14:17:28.000Z</time>
      </trkpt>
      <trkpt lat="47.90716" lon="7.13681">
        <ele>897.6</ele>
        <time>2019-02-26T14:17:46.000Z</time>
      </trkpt>
      <trkpt lat="47.90721" lon="7.13632">
        <ele>896.4</ele>
        <time>2019-02-26T14:18:04.000Z</time>
      </trkpt>
      <trkpt lat="47.90705" lon="7.1363">
        <ele>905.6</ele>
        <time>2019-02-26T14:18:22.000Z</time>
      </trkpt>
      <trkpt lat="47.90755" lon="7.13587">
        <ele>893.2</ele>
        <time>2019-02-26T14:18:40.000Z</time>
      </trkpt>
      <trkpt lat="47.90764" lon="7.13545">
        <ele>907</ele>
        <time>2019-02-26T14:18:58.000Z</time>
      </trkpt>
      <trkpt lat="47.90796" lon="7.13487">
        <ele>916.4</ele>
        <time>2019-02-26T14:19:16.000Z</time>
      </trkpt>
      <trkpt lat="47.90799" lon="7.13475">
        <ele>918.3</ele>
        <time>2019-02-26T14:19:34.000Z</time>
      </trkpt>
      <trkpt lat="47.90797" lon="7.13476">
        <ele>918.6</ele>
        <time>2019-02-26T14:19:52.000Z</time>
      </trkpt>
      <trkpt lat="47.90798" lon="7.1347">
        <ele>919.5</ele>
        <time>2019-02-26T14:20:10.000Z</time>
      </trkpt>
      <trkpt lat="47.90812" lon="7.13433">
        <ele>919.9</ele>
        <time>2019-02-26T14:20:28.000Z</time>
      </trkpt>
      <trkpt lat="47.90825" lon="7.13412">
        <ele>916.1</ele>
        <time>2019-02-26T14:20:46.000Z</time>
      </trkpt>
      <trkpt lat="47.90839" lon="7.13388">
        <ele>912.4</ele>
        <time>2019-02-26T14:21:04.000Z</time>
      </trkpt>
      <trkpt lat="47.90832" lon="7.13356">
        <ele>917.6</ele>
        <time>2019-02-26T14:21:22.000Z</time>
      </trkpt>
      <trkpt lat="47.90831" lon="7.13319">
        <ele>918.6</ele>
        <time>2019-02-26T14:21:40.000Z</time>
      </trkpt>
      <trkpt lat="47.9083" lon="7.13318">
        <ele>919</ele>
        <time>2019-02-26T14:21:57.000Z</time>
      </trkpt>
      <trkpt lat="47.90822" lon="7.13291">
        <ele>923.9</ele>
        <time>2019-02-26T14:22:15.000Z</time>
      </trkpt>
      <trkpt lat="47.9079" lon="7.13245">
        <ele>940.5</ele>
        <time>2019-02-26T14:22:33.000Z</time>
      </trkpt>
      <trkpt lat="47.9078" lon="7.13242">
        <ele>944.5</ele>
        <time>2019-02-26T14:22:51.000Z</time>
      </trkpt>
      <trkpt lat="47.90786" lon="7.1323">
        <ele>942.9</ele>
        <time>2019-02-26T14:23:09.000Z</time>
      </trkpt>
      <trkpt lat="47.90799" lon="7.13188">
        <ele>943.3</ele>
        <time>2019-02-26T14:23:27.000Z</time>
      </trkpt>
      <trkpt lat="47.90782" lon="7.13177">
        <ele>948.3</ele>
        <time>2019-02-26T14:23:45.000Z</time>
      </trkpt>
      <trkpt lat="47.90778" lon="7.13172">
        <ele>949.6</ele>
        <time>2019-02-26T14:24:03.000Z</time>
      </trkpt>
      <trkpt lat="47.90785" lon="7.1317">
        <ele>948.2</ele>
        <time>2019-02-26T14:24:21.000Z</time>
      </trkpt>
      <trkpt lat="47.90791" lon="7.13149">
        <ele>948.7</ele>
        <time>2019-02-26T14:24:39.000Z</time>
      </trkpt>
      <trkpt lat="47.90782" lon="7.1313">
        <ele>952.7</ele>
        <time>2019-02-26T14:24:57.000Z</time>
      </trkpt>
      <trkpt lat="47.90777" lon="7.13095">
        <ele>957.4</ele>
        <time>2019-02-26T14:25:14.000Z</time>
      </trkpt>
      <trkpt lat="47.90791" lon="7.13101">
        <ele>954.1</ele>
        <time>2019-02-26T14:25:32.000Z</time>
      </trkpt>
      <trkpt lat="47.90787" lon="7.13094">
        <ele>955.8</ele>
        <time>2019-02-26T14:25:50.000Z</time>
      </trkpt>
      <trkpt lat="47.90786" lon="7.13096">
        <ele>955.7</ele>
        <time>2019-02-26T14:26:08.000Z</time>
      </trkpt>
      <trkpt lat="47.90784" lon="7.13067">
        <ele>959.8</ele>
        <time>2019-02-26T14:26:26.000Z</time>
      </trkpt>
      <trkpt lat="47.90782" lon="7.13055">
        <ele>961.4</ele>
        <time>2019-02-26T14:26:39.741Z</time>
      </trkpt>
      <trkpt lat="47.90816" lon="7.13035">
        <ele>960.1</ele>
        <time>2019-02-26T14:27:00.000Z</time>
      </trkpt>
      <trkpt lat="47.9081" lon="7.13047">
        <ele>958.8</ele>
        <time>2019-02-26T14:27:19.000Z</time>
      </trkpt>
      <trkpt lat="47.90803" lon="7.13057">
        <ele>958.2</ele>
        <time>2019-02-26T14:27:37.000Z</time>
      </trkpt>
      <trkpt lat="47.90792" lon="7.13028">
        <ele>963</ele>
        <time>2019-02-26T14:27:55.000Z</time>
      </trkpt>
      <trkpt lat="47.90802" lon="7.12989">
        <ele>966.2</ele>
        <time>2019-02-26T14:28:13.000Z</time>
      </trkpt>
      <trkpt lat="47.908" lon="7.1297">
        <ele>967.9</ele>
        <time>2019-02-26T14:28:31.000Z</time>
      </trkpt>
      <trkpt lat="47.90827" lon="7.12933">
        <ele>969.4</ele>
        <time>2019-02-26T14:28:49.000Z</time>
      </trkpt>
      <trkpt lat="47.90802" lon="7.12948">
        <ele>968.6</ele>
        <time>2019-02-26T14:29:07.000Z</time>
      </trkpt>
      <trkpt lat="47.90804" lon="7.12905">
        <ele>970.7</ele>
        <time>2019-02-26T14:29:25.000Z</time>
      </trkpt>
      <trkpt lat="47.90809" lon="7.12883">
        <ele>972.3</ele>
        <time>2019-02-26T14:29:43.000Z</time>
      </trkpt>
      <trkpt lat="47.90812" lon="7.1286">
        <ele>973.5</ele>
        <time>2019-02-26T14:30:00.000Z</time>
      </trkpt>
      <trkpt lat="47.90814" lon="7.12833">
        <ele>974.9</ele>
        <time>2019-02-26T14:30:18.000Z</time>
      </trkpt>
      <trkpt lat="47.90812" lon="7.12813">
        <ele>976.9</ele>
        <time>2019-02-26T14:30:35.000Z</time>
      </trkpt>
      <trkpt lat="47.90816" lon="7.12829">
        <ele>975.6</ele>
        <time>2019-02-26T14:30:53.000Z</time>
      </trkpt>
      <trkpt lat="47.90814" lon="7.12829">
        <ele>975.4</ele>
        <time>2019-02-26T14:31:10.000Z</time>
      </trkpt>
      <trkpt lat="47.90815" lon="7.12827">
        <ele>975.7</ele>
        <time>2019-02-26T14:31:28.000Z</time>
      </trkpt>
      <trkpt lat="47.90817" lon="7.12828">
        <ele>975.8</ele>
        <time>2019-02-26T14:31:46.000Z</time>
      </trkpt>
      <trkpt lat="47.90814" lon="7.12827">
        <ele>975.6</ele>
        <time>2019-02-26T14:32:01.720Z</time>
      </trkpt>
      <trkpt lat="47.90815" lon="7.12812">
        <ele>977.3</ele>
        <time>2019-02-26T14:32:20.000Z</time>
      </trkpt>
      <trkpt lat="47.90815" lon="7.12827">
        <ele>975.7</ele>
        <time>2019-02-26T14:32:38.000Z</time>
      </trkpt>
      <trkpt lat="47.90808" lon="7.12837">
        <ele>974.1</ele>
        <time>2019-02-26T14:32:56.000Z</time>
      </trkpt>
      <trkpt lat="47.90807" lon="7.12842">
        <ele>973.8</ele>
        <time>2019-02-26T14:33:08.000Z</time>
      </trkpt>
      <trkpt lat="47.9082" lon="7.12858">
        <ele>974.2</ele>
        <time>2019-02-26T14:33:32.000Z</time>
      </trkpt>
      <trkpt lat="47.90817" lon="7.12864">
        <ele>973.6</ele>
        <time>2019-02-26T14:33:49.000Z</time>
      </trkpt>
      <trkpt lat="47.90818" lon="7.1286">
        <ele>974</ele>
        <time>2019-02-26T14:34:23.000Z</time>
      </trkpt>
      <trkpt lat="47.90815" lon="7.12867">
        <ele>973.3</ele>
        <time>2019-02-26T14:34:57.000Z</time>
      </trkpt>
      <trkpt lat="47.90817" lon="7.12862">
        <ele>973.8</ele>
        <time>2019-02-26T14:35:15.000Z</time>
      </trkpt>
      <trkpt lat="47.90816" lon="7.12861">
        <ele>973.8</ele>
        <time>2019-02-26T14:35:30.601Z</time>
      </trkpt>
      <trkpt lat="47.90817" lon="7.12862">
        <ele>973.8</ele>
        <time>2019-02-26T14:36:24.000Z</time>
      </trkpt>
      <trkpt lat="47.90818" lon="7.12862">
        <ele>973.8</ele>
        <time>2019-02-26T14:40:25.000Z</time>
      </trkpt>
      <trkpt lat="47.90819" lon="7.1286">
        <ele>974</ele>
        <time>2019-02-26T14:40:59.000Z</time>
      </trkpt>
      <trkpt lat="47.90819" lon="7.12862">
        <ele>973.9</ele>
        <time>2019-02-26T14:41:51.000Z</time>
      </trkpt>
      <trkpt lat="47.90819" lon="7.1286">
        <ele>974</ele>
        <time>2019-02-26T14:43:30.616Z</time>
      </trkpt>
      <trkpt lat="47.90815" lon="7.12854">
        <ele>974</ele>
        <time>2019-02-26T14:44:07.000Z</time>
      </trkpt>
      <trkpt lat="47.90817" lon="7.12855">
        <ele>974.1</ele>
        <time>2019-02-26T14:44:22.618Z</time>
      </trkpt>
      <trkpt lat="47.90817" lon="7.12857">
        <ele>974</ele>
        <time>2019-02-26T14:45:15.000Z</time>
      </trkpt>
      <trkpt lat="47.90816" lon="7.12858">
        <ele>973.9</ele>
        <time>2019-02-26T14:45:49.000Z</time>
      </trkpt>
      <trkpt lat="47.90815" lon="7.12858">
        <ele>973.8</ele>
        <time>2019-02-26T14:46:06.000Z</time>
      </trkpt>
      <trkpt lat="47.90784" lon="7.12892">
        <ele>969.4</ele>
        <time>2019-02-26T14:46:23.000Z</time>
      </trkpt>
      <trkpt lat="47.90779" lon="7.12913">
        <ele>967.4</ele>
        <time>2019-02-26T14:46:41.000Z</time>
      </trkpt>
      <trkpt lat="47.90768" lon="7.12923">
        <ele>965.3</ele>
        <time>2019-02-26T14:46:59.000Z</time>
      </trkpt>
      <trkpt lat="47.90765" lon="7.12926">
        <ele>964.9</ele>
        <time>2019-02-26T14:47:17.000Z</time>
      </trkpt>
      <trkpt lat="47.9074" lon="7.12893">
        <ele>960.7</ele>
        <time>2019-02-26T14:47:35.000Z</time>
      </trkpt>
      <trkpt lat="47.90732" lon="7.12887">
        <ele>959.2</ele>
        <time>2019-02-26T14:47:53.000Z</time>
      </trkpt>
      <trkpt lat="47.9072" lon="7.12894">
        <ele>956.3</ele>
        <time>2019-02-26T14:48:11.000Z</time>
      </trkpt>
      <trkpt lat="47.90716" lon="7.12846">
        <ele>959.2</ele>
        <time>2019-02-26T14:48:29.000Z</time>
      </trkpt>
      <trkpt lat="47.90719" lon="7.12849">
        <ele>959.6</ele>
        <time>2019-02-26T14:48:47.000Z</time>
      </trkpt>
      <trkpt lat="47.9069" lon="7.12825">
        <ele>954.8</ele>
        <time>2019-02-26T14:49:22.000Z</time>
      </trkpt>
      <trkpt lat="47.90676" lon="7.12801">
        <ele>953.8</ele>
        <time>2019-02-26T14:49:40.000Z</time>
      </trkpt>
      <trkpt lat="47.90623" lon="7.12789">
        <ele>939.6</ele>
        <time>2019-02-26T14:49:58.000Z</time>
      </trkpt>
      <trkpt lat="47.90609" lon="7.12783">
        <ele>935.8</ele>
        <time>2019-02-26T14:50:16.000Z</time>
      </trkpt>
      <trkpt lat="47.90594" lon="7.12771">
        <ele>932.7</ele>
        <time>2019-02-26T14:50:34.000Z</time>
      </trkpt>
      <trkpt lat="47.9059" lon="7.12749">
        <ele>933.2</ele>
        <time>2019-02-26T14:50:52.000Z</time>
      </trkpt>
      <trkpt lat="47.90577" lon="7.12763">
        <ele>928</ele>
        <time>2019-02-26T14:51:10.000Z</time>
      </trkpt>
      <trkpt lat="47.90557" lon="7.12711">
        <ele>926.6</ele>
        <time>2019-02-26T14:51:28.000Z</time>
      </trkpt>
      <trkpt lat="47.90508" lon="7.12712">
        <ele>908.2</ele>
        <time>2019-02-26T14:51:46.000Z</time>
      </trkpt>
      <trkpt lat="47.9051" lon="7.12711">
        <ele>909.4</ele>
        <time>2019-02-26T14:52:04.000Z</time>
      </trkpt>
      <trkpt lat="47.90527" lon="7.1267">
        <ele>921.4</ele>
        <time>2019-02-26T14:52:22.000Z</time>
      </trkpt>
      <trkpt lat="47.90499" lon="7.12628">
        <ele>918.6</ele>
        <time>2019-02-26T14:52:40.000Z</time>
      </trkpt>
      <trkpt lat="47.90501" lon="7.12627">
        <ele>919.1</ele>
        <time>2019-02-26T14:52:58.000Z</time>
      </trkpt>
      <trkpt lat="47.90478" lon="7.12633">
        <ele>917.4</ele>
        <time>2019-02-26T14:53:16.000Z</time>
      </trkpt>
      <trkpt lat="47.9044" lon="7.1263">
        <ele>918.2</ele>
        <time>2019-02-26T14:53:34.000Z</time>
      </trkpt>
      <trkpt lat="47.90434" lon="7.12613">
        <ele>920.6</ele>
        <time>2019-02-26T14:53:52.000Z</time>
      </trkpt>
      <trkpt lat="47.90418" lon="7.12586">
        <ele>921.9</ele>
        <time>2019-02-26T14:54:10.000Z</time>
      </trkpt>
      <trkpt lat="47.90394" lon="7.12617">
        <ele>913.3</ele>
        <time>2019-02-26T14:54:28.000Z</time>
      </trkpt>
      <trkpt lat="47.90391" lon="7.12604">
        <ele>914.2</ele>
        <time>2019-02-26T14:54:52.000Z</time>
      </trkpt>
      <trkpt lat="47.9038" lon="7.12601">
        <ele>911.6</ele>
        <time>2019-02-26T14:55:10.000Z</time>
      </trkpt>
      <trkpt lat="47.90378" lon="7.12602">
        <ele>911</ele>
        <time>2019-02-26T14:55:27.000Z</time>
      </trkpt>
      <trkpt lat="47.90376" lon="7.1258">
        <ele>913.2</ele>
        <time>2019-02-26T14:55:45.000Z</time>
      </trkpt>
      <trkpt lat="47.90316" lon="7.12542">
        <ele>900</ele>
        <time>2019-02-26T14:56:03.000Z</time>
      </trkpt>
      <trkpt lat="47.90301" lon="7.12533">
        <ele>896.6</ele>
        <time>2019-02-26T14:56:21.000Z</time>
      </trkpt>
      <trkpt lat="47.90294" lon="7.12541">
        <ele>893.3</ele>
        <time>2019-02-26T14:56:39.000Z</time>
      </trkpt>
      <trkpt lat="47.90282" lon="7.12533">
        <ele>890.7</ele>
        <time>2019-02-26T14:56:57.000Z</time>
      </trkpt>
      <trkpt lat="47.90293" lon="7.12536">
        <ele>893.7</ele>
        <time>2019-02-26T14:57:15.000Z</time>
      </trkpt>
      <trkpt lat="47.90282" lon="7.12539">
        <ele>890</ele>
        <time>2019-02-26T14:57:33.000Z</time>
      </trkpt>
      <trkpt lat="47.90269" lon="7.12545">
        <ele>885.5</ele>
        <time>2019-02-26T14:57:51.000Z</time>
      </trkpt>
      <trkpt lat="47.90261" lon="7.12515">
        <ele>885.9</ele>
        <time>2019-02-26T14:58:09.000Z</time>
      </trkpt>
      <trkpt lat="47.90245" lon="7.1251">
        <ele>881.4</ele>
        <time>2019-02-26T14:58:27.000Z</time>
      </trkpt>
      <trkpt lat="47.9022" lon="7.12564">
        <ele>867</ele>
        <time>2019-02-26T14:58:45.000Z</time>
      </trkpt>
      <trkpt lat="47.90214" lon="7.12548">
        <ele>866.5</ele>
        <time>2019-02-26T14:59:03.000Z</time>
      </trkpt>
      <trkpt lat="47.90214" lon="7.12506">
        <ele>871.2</ele>
        <time>2019-02-26T14:59:21.000Z</time>
      </trkpt>
      <trkpt lat="47.90213" lon="7.12501">
        <ele>871.3</ele>
        <time>2019-02-26T14:59:39.000Z</time>
      </trkpt>
      <trkpt lat="47.90209" lon="7.12498">
        <ele>870.2</ele>
        <time>2019-02-26T14:59:57.000Z</time>
      </trkpt>
      <trkpt lat="47.90202" lon="7.12497">
        <ele>867.6</ele>
        <time>2019-02-26T15:00:17.000Z</time>
      </trkpt>
      <trkpt lat="47.90166" lon="7.12515">
        <ele>860.3</ele>
        <time>2019-02-26T15:00:36.000Z</time>
      </trkpt>
      <trkpt lat="47.90166" lon="7.1251">
        <ele>861</ele>
        <time>2019-02-26T15:00:53.000Z</time>
      </trkpt>
      <trkpt lat="47.90167" lon="7.12507">
        <ele>861</ele>
        <time>2019-02-26T15:01:11.000Z</time>
      </trkpt>
      <trkpt lat="47.90167" lon="7.12505">
        <ele>861.3</ele>
        <time>2019-02-26T15:01:29.000Z</time>
      </trkpt>
      <trkpt lat="47.90177" lon="7.12504">
        <ele>862.2</ele>
        <time>2019-02-26T15:01:47.000Z</time>
      </trkpt>
      <trkpt lat="47.90186" lon="7.12502">
        <ele>863.1</ele>
        <time>2019-02-26T15:02:05.000Z</time>
      </trkpt>
      <trkpt lat="47.90156" lon="7.12536">
        <ele>864.1</ele>
        <time>2019-02-26T15:02:23.000Z</time>
      </trkpt>
      <trkpt lat="47.90151" lon="7.12535">
        <ele>867.7</ele>
        <time>2019-02-26T15:02:41.000Z</time>
      </trkpt>
      <trkpt lat="47.90154" lon="7.12552">
        <ele>863.2</ele>
        <time>2019-02-26T15:02:59.000Z</time>
      </trkpt>
      <trkpt lat="47.90113" lon="7.12578">
        <ele>879.9</ele>
        <time>2019-02-26T15:03:17.000Z</time>
      </trkpt>
      <trkpt lat="47.90116" lon="7.12582">
        <ele>877.9</ele>
        <time>2019-02-26T15:03:35.000Z</time>
      </trkpt>
      <trkpt lat="47.90128" lon="7.12603">
        <ele>868.1</ele>
        <time>2019-02-26T15:03:53.000Z</time>
      </trkpt>
      <trkpt lat="47.90114" lon="7.12622">
        <ele>872</ele>
        <time>2019-02-26T15:04:29.000Z</time>
      </trkpt>
      <trkpt lat="47.90112" lon="7.12635">
        <ele>871.1</ele>
        <time>2019-02-26T15:04:47.000Z</time>
      </trkpt>
      <trkpt lat="47.90113" lon="7.12641">
        <ele>869.7</ele>
        <time>2019-02-26T15:05:04.000Z</time>
      </trkpt>
      <trkpt lat="47.90122" lon="7.12657">
        <ele>862.9</ele>
        <time>2019-02-26T15:05:22.000Z</time>
      </trkpt>
      <trkpt lat="47.90102" lon="7.12653">
        <ele>873.1</ele>
        <time>2019-02-26T15:05:41.000Z</time>
      </trkpt>
      <trkpt lat="47.90114" lon="7.12678">
        <ele>864.4</ele>
        <time>2019-02-26T15:05:59.000Z</time>
      </trkpt>
      <trkpt lat="47.90111" lon="7.12702">
        <ele>863.2</ele>
        <time>2019-02-26T15:06:17.000Z</time>
      </trkpt>
      <trkpt lat="47.90115" lon="7.12706">
        <ele>861.1</ele>
        <time>2019-02-26T15:06:34.000Z</time>
      </trkpt>
      <trkpt lat="47.90119" lon="7.1274">
        <ele>855.5</ele>
        <time>2019-02-26T15:06:52.000Z</time>
      </trkpt>
      <trkpt lat="47.901" lon="7.12777">
        <ele>853.6</ele>
        <time>2019-02-26T15:07:10.000Z</time>
      </trkpt>
      <trkpt lat="47.90105" lon="7.12807">
        <ele>846.1</ele>
        <time>2019-02-26T15:07:28.000Z</time>
      </trkpt>
      <trkpt lat="47.90061" lon="7.12822">
        <ele>852.1</ele>
        <time>2019-02-26T15:07:46.000Z</time>
      </trkpt>
      <trkpt lat="47.90087" lon="7.12835">
        <ele>844.9</ele>
        <time>2019-02-26T15:08:04.000Z</time>
      </trkpt>
      <trkpt lat="47.9005" lon="7.12863">
        <ele>843.9</ele>
        <time>2019-02-26T15:08:22.000Z</time>
      </trkpt>
      <trkpt lat="47.90039" lon="7.12878">
        <ele>841.3</ele>
        <time>2019-02-26T15:08:40.000Z</time>
      </trkpt>
      <trkpt lat="47.90047" lon="7.12888">
        <ele>838.1</ele>
        <time>2019-02-26T15:08:57.000Z</time>
      </trkpt>
      <trkpt lat="47.9001" lon="7.12902">
        <ele>837.7</ele>
        <time>2019-02-26T15:09:15.000Z</time>
      </trkpt>
      <trkpt lat="47.8999" lon="7.12908">
        <ele>837.8</ele>
        <time>2019-02-26T15:09:33.000Z</time>
      </trkpt>
      <trkpt lat="47.89978" lon="7.12928">
        <ele>834.2</ele>
        <time>2019-02-26T15:09:51.000Z</time>
      </trkpt>
      <trkpt lat="47.89948" lon="7.12937">
        <ele>833.9</ele>
        <time>2019-02-26T15:10:09.000Z</time>
      </trkpt>
      <trkpt lat="47.89927" lon="7.12946">
        <ele>832.3</ele>
        <time>2019-02-26T15:10:27.000Z</time>
      </trkpt>
      <trkpt lat="47.89915" lon="7.12922">
        <ele>838.8</ele>
        <time>2019-02-26T15:10:45.000Z</time>
      </trkpt>
      <trkpt lat="47.89915" lon="7.12925">
        <ele>838.1</ele>
        <time>2019-02-26T15:11:02.000Z</time>
      </trkpt>
      <trkpt lat="47.89897" lon="7.12961">
        <ele>832.3</ele>
        <time>2019-02-26T15:11:37.000Z</time>
      </trkpt>
      <trkpt lat="47.89893" lon="7.12997">
        <ele>826.6</ele>
        <time>2019-02-26T15:11:54.000Z</time>
      </trkpt>
      <trkpt lat="47.89876" lon="7.12995">
        <ele>828.1</ele>
        <time>2019-02-26T15:12:12.000Z</time>
      </trkpt>
      <trkpt lat="47.89848" lon="7.13">
        <ele>827.1</ele>
        <time>2019-02-26T15:12:29.000Z</time>
      </trkpt>
      <trkpt lat="47.89847" lon="7.13005">
        <ele>826.6</ele>
        <time>2019-02-26T15:12:47.000Z</time>
      </trkpt>
      <trkpt lat="47.89849" lon="7.13009">
        <ele>826.5</ele>
        <time>2019-02-26T15:13:21.000Z</time>
      </trkpt>
      <trkpt lat="47.89848" lon="7.13015">
        <ele>826</ele>
        <time>2019-02-26T15:13:39.000Z</time>
      </trkpt>
      <trkpt lat="47.89849" lon="7.13015">
        <ele>826</ele>
        <time>2019-02-26T15:13:57.000Z</time>
      </trkpt>
      <trkpt lat="47.89848" lon="7.13014">
        <ele>826</ele>
        <time>2019-02-26T15:14:47.642Z</time>
      </trkpt>
      <trkpt lat="47.89812" lon="7.13022">
        <ele>820.6</ele>
        <time>2019-02-26T15:15:23.000Z</time>
      </trkpt>
      <trkpt lat="47.89801" lon="7.13028">
        <ele>818.2</ele>
        <time>2019-02-26T15:15:40.000Z</time>
      </trkpt>
      <trkpt lat="47.89779" lon="7.1305">
        <ele>812.6</ele>
        <time>2019-02-26T15:15:58.000Z</time>
      </trkpt>
      <trkpt lat="47.89772" lon="7.13031">
        <ele>813.3</ele>
        <time>2019-02-26T15:16:15.000Z</time>
      </trkpt>
      <trkpt lat="47.8975" lon="7.13052">
        <ele>809.4</ele>
        <time>2019-02-26T15:16:33.000Z</time>
      </trkpt>
      <trkpt lat="47.89737" lon="7.13069">
        <ele>807.1</ele>
        <time>2019-02-26T15:16:50.000Z</time>
      </trkpt>
      <trkpt lat="47.89725" lon="7.13094">
        <ele>805.5</ele>
        <time>2019-02-26T15:17:08.000Z</time>
      </trkpt>
      <trkpt lat="47.89715" lon="7.13116">
        <ele>804.3</ele>
        <time>2019-02-26T15:17:25.000Z</time>
      </trkpt>
      <trkpt lat="47.89719" lon="7.13135">
        <ele>801.7</ele>
        <time>2019-02-26T15:17:43.000Z</time>
      </trkpt>
      <trkpt lat="47.89717" lon="7.13127">
        <ele>802.8</ele>
        <time>2019-02-26T15:18:00.000Z</time>
      </trkpt>
      <trkpt lat="47.89713" lon="7.13121">
        <ele>803.7</ele>
        <time>2019-02-26T15:18:18.000Z</time>
      </trkpt>
      <trkpt lat="47.89701" lon="7.13121">
        <ele>803.8</ele>
        <time>2019-02-26T15:18:35.000Z</time>
      </trkpt>
      <trkpt lat="47.89716" lon="7.13117">
        <ele>804.2</ele>
        <time>2019-02-26T15:18:54.000Z</time>
      </trkpt>
      <trkpt lat="47.89703" lon="7.13126">
        <ele>803.2</ele>
        <time>2019-02-26T15:19:12.000Z</time>
      </trkpt>
      <trkpt lat="47.89673" lon="7.13107">
        <ele>803.4</ele>
        <time>2019-02-26T15:19:30.000Z</time>
      </trkpt>
      <trkpt lat="47.89673" lon="7.13111">
        <ele>803.5</ele>
        <time>2019-02-26T15:19:45.686Z</time>
      </trkpt>
      <trkpt lat="47.89672" lon="7.13116">
        <ele>802.7</ele>
        <time>2019-02-26T15:20:03.000Z</time>
      </trkpt>
      <trkpt lat="47.89681" lon="7.13148">
        <ele>799.1</ele>
        <time>2019-02-26T15:20:21.000Z</time>
      </trkpt>
      <trkpt lat="47.89718" lon="7.13171">
        <ele>796.1</ele>
        <time>2019-02-26T15:20:38.000Z</time>
      </trkpt>
      <trkpt lat="47.89722" lon="7.13215">
        <ele>788.1</ele>
        <time>2019-02-26T15:20:56.000Z</time>
      </trkpt>
      <trkpt lat="47.89721" lon="7.13224">
        <ele>786.7</ele>
        <time>2019-02-26T15:21:14.000Z</time>
      </trkpt>
      <trkpt lat="47.89714" lon="7.1325">
        <ele>782.3</ele>
        <time>2019-02-26T15:21:32.000Z</time>
      </trkpt>
      <trkpt lat="47.89713" lon="7.13267">
        <ele>778.7</ele>
        <time>2019-02-26T15:21:50.000Z</time>
      </trkpt>
      <trkpt lat="47.89716" lon="7.13278">
        <ele>776.2</ele>
        <time>2019-02-26T15:22:08.000Z</time>
      </trkpt>
      <trkpt lat="47.89723" lon="7.13297">
        <ele>772.4</ele>
        <time>2019-02-26T15:22:25.000Z</time>
      </trkpt>
      <trkpt lat="47.89723" lon="7.13339">
        <ele>765.8</ele>
        <time>2019-02-26T15:22:43.000Z</time>
      </trkpt>
      <trkpt lat="47.89722" lon="7.13358">
        <ele>762.6</ele>
        <time>2019-02-26T15:23:01.000Z</time>
      </trkpt>
      <trkpt lat="47.89707" lon="7.13362">
        <ele>762.9</ele>
        <time>2019-02-26T15:23:18.000Z</time>
      </trkpt>
      <trkpt lat="47.89722" lon="7.13401">
        <ele>755.4</ele>
        <time>2019-02-26T15:23:36.000Z</time>
      </trkpt>
      <trkpt lat="47.8973" lon="7.13434">
        <ele>744.8</ele>
        <time>2019-02-26T15:23:54.000Z</time>
      </trkpt>
      <trkpt lat="47.89757" lon="7.13418">
        <ele>746.6</ele>
        <time>2019-02-26T15:24:11.000Z</time>
      </trkpt>
      <trkpt lat="47.89766" lon="7.13429">
        <ele>740.8</ele>
        <time>2019-02-26T15:24:29.000Z</time>
      </trkpt>
      <trkpt lat="47.89773" lon="7.13409">
        <ele>744</ele>
        <time>2019-02-26T15:24:47.000Z</time>
      </trkpt>
      <trkpt lat="47.89794" lon="7.13424">
        <ele>736.6</ele>
        <time>2019-02-26T15:25:05.000Z</time>
      </trkpt>
      <trkpt lat="47.89794" lon="7.13431">
        <ele>735.2</ele>
        <time>2019-02-26T15:25:23.000Z</time>
      </trkpt>
      <trkpt lat="47.89796" lon="7.13429">
        <ele>735.3</ele>
        <time>2019-02-26T15:25:40.000Z</time>
      </trkpt>
      <trkpt lat="47.89769" lon="7.1344">
        <ele>736.8</ele>
        <time>2019-02-26T15:25:58.000Z</time>
      </trkpt>
      <trkpt lat="47.89753" lon="7.13482">
        <ele>726.4</ele>
        <time>2019-02-26T15:26:16.000Z</time>
      </trkpt>
      <trkpt lat="47.8973" lon="7.13487">
        <ele>724.9</ele>
        <time>2019-02-26T15:26:34.000Z</time>
      </trkpt>
      <trkpt lat="47.89704" lon="7.1349">
        <ele>722.4</ele>
        <time>2019-02-26T15:26:51.000Z</time>
      </trkpt>
      <trkpt lat="47.89683" lon="7.13514">
        <ele>714.9</ele>
        <time>2019-02-26T15:27:09.000Z</time>
      </trkpt>
      <trkpt lat="47.89681" lon="7.13496">
        <ele>719</ele>
        <time>2019-02-26T15:27:27.000Z</time>
      </trkpt>
      <trkpt lat="47.89644" lon="7.13488">
        <ele>721.5</ele>
        <time>2019-02-26T15:27:45.000Z</time>
      </trkpt>
      <trkpt lat="47.8965" lon="7.13499">
        <ele>718.5</ele>
        <time>2019-02-26T15:28:03.000Z</time>
      </trkpt>
      <trkpt lat="47.8965" lon="7.13526">
        <ele>716</ele>
        <time>2019-02-26T15:28:21.000Z</time>
      </trkpt>
      <trkpt lat="47.89662" lon="7.1351">
        <ele>716.3</ele>
        <time>2019-02-26T15:28:39.000Z</time>
      </trkpt>
      <trkpt lat="47.89677" lon="7.13515">
        <ele>714.9</ele>
        <time>2019-02-26T15:28:59.000Z</time>
      </trkpt>
      <trkpt lat="47.89682" lon="7.13515">
        <ele>714.7</ele>
        <time>2019-02-26T15:29:17.000Z</time>
      </trkpt>
      <trkpt lat="47.89686" lon="7.13509">
        <ele>715.8</ele>
        <time>2019-02-26T15:29:34.000Z</time>
      </trkpt>
      <trkpt lat="47.89697" lon="7.13537">
        <ele>710.5</ele>
        <time>2019-02-26T15:29:54.000Z</time>
      </trkpt>
      <trkpt lat="47.89744" lon="7.13547">
        <ele>707.6</ele>
        <time>2019-02-26T15:30:12.000Z</time>
      </trkpt>
      <trkpt lat="47.89761" lon="7.13568">
        <ele>705</ele>
        <time>2019-02-26T15:30:30.000Z</time>
      </trkpt>
      <trkpt lat="47.89769" lon="7.13564">
        <ele>706.6</ele>
        <time>2019-02-26T15:30:47.000Z</time>
      </trkpt>
      <trkpt lat="47.89782" lon="7.1357">
        <ele>707.3</ele>
        <time>2019-02-26T15:31:05.000Z</time>
      </trkpt>
      <trkpt lat="47.89795" lon="7.13572">
        <ele>711.1</ele>
        <time>2019-02-26T15:31:23.000Z</time>
      </trkpt>
      <trkpt lat="47.8978" lon="7.13617">
        <ele>700.1</ele>
        <time>2019-02-26T15:31:41.000Z</time>
      </trkpt>
      <trkpt lat="47.89781" lon="7.13617">
        <ele>700.2</ele>
        <time>2019-02-26T15:31:56.610Z</time>
      </trkpt>
      <trkpt lat="47.8981" lon="7.13645">
        <ele>698.2</ele>
        <time>2019-02-26T15:32:15.000Z</time>
      </trkpt>
      <trkpt lat="47.89828" lon="7.13703">
        <ele>695.3</ele>
        <time>2019-02-26T15:32:32.000Z</time>
      </trkpt>
      <trkpt lat="47.89848" lon="7.13706">
        <ele>696</ele>
        <time>2019-02-26T15:32:50.000Z</time>
      </trkpt>
      <trkpt lat="47.89866" lon="7.13721">
        <ele>696.4</ele>
        <time>2019-02-26T15:33:08.000Z</time>
      </trkpt>
      <trkpt lat="47.89866" lon="7.1371">
        <ele>696.9</ele>
        <time>2019-02-26T15:33:25.000Z</time>
      </trkpt>
      <trkpt lat="47.89908" lon="7.13732">
        <ele>698.9</ele>
        <time>2019-02-26T15:33:43.000Z</time>
      </trkpt>
      <trkpt lat="47.89912" lon="7.13752">
        <ele>698.4</ele>
        <time>2019-02-26T15:34:01.000Z</time>
      </trkpt>
      <trkpt lat="47.89914" lon="7.13791">
        <ele>697.4</ele>
        <time>2019-02-26T15:34:19.000Z</time>
      </trkpt>
      <trkpt lat="47.89935" lon="7.13802">
        <ele>701.2</ele>
        <time>2019-02-26T15:34:37.000Z</time>
      </trkpt>
      <trkpt lat="47.89941" lon="7.13857">
        <ele>697.7</ele>
        <time>2019-02-26T15:34:52.611Z</time>
      </trkpt>
      <trkpt lat="47.89943" lon="7.13865">
        <ele>697.5</ele>
        <time>2019-02-26T15:35:11.000Z</time>
      </trkpt>
      <trkpt lat="47.8995" lon="7.13902">
        <ele>695.5</ele>
        <time>2019-02-26T15:35:29.000Z</time>
      </trkpt>
      <trkpt lat="47.89968" lon="7.13932">
        <ele>694.8</ele>
        <time>2019-02-26T15:35:47.000Z</time>
      </trkpt>
      <trkpt lat="47.89965" lon="7.13952">
        <ele>692.4</ele>
        <time>2019-02-26T15:36:05.000Z</time>
      </trkpt>
      <trkpt lat="47.89965" lon="7.1395">
        <ele>692.6</ele>
        <time>2019-02-26T15:36:22.000Z</time>
      </trkpt>
      <trkpt lat="47.90007" lon="7.1401">
        <ele>693.3</ele>
        <time>2019-02-26T15:36:39.000Z</time>
      </trkpt>
      <trkpt lat="47.90015" lon="7.14006">
        <ele>695.9</ele>
        <time>2019-02-26T15:36:57.000Z</time>
      </trkpt>
      <trkpt lat="47.90009" lon="7.14019">
        <ele>692.5</ele>
        <time>2019-02-26T15:37:15.000Z</time>
      </trkpt>
      <trkpt lat="47.90011" lon="7.14031">
        <ele>691.2</ele>
        <time>2019-02-26T15:37:33.000Z</time>
      </trkpt>
      <trkpt lat="47.90016" lon="7.1403">
        <ele>692.7</ele>
        <time>2019-02-26T15:37:50.000Z</time>
      </trkpt>
      <trkpt lat="47.90025" lon="7.1406">
        <ele>690.5</ele>
        <time>2019-02-26T15:38:43.000Z</time>
      </trkpt>
      <trkpt lat="47.90045" lon="7.14085">
        <ele>693.9</ele>
        <time>2019-02-26T15:39:01.000Z</time>
      </trkpt>
      <trkpt lat="47.90051" lon="7.14123">
        <ele>689.1</ele>
        <time>2019-02-26T15:39:19.000Z</time>
      </trkpt>
      <trkpt lat="47.9006" lon="7.14151">
        <ele>687.3</ele>
        <time>2019-02-26T15:39:36.000Z</time>
      </trkpt>
      <trkpt lat="47.90072" lon="7.14177">
        <ele>687.2</ele>
        <time>2019-02-26T15:39:54.000Z</time>
      </trkpt>
      <trkpt lat="47.90095" lon="7.14201">
        <ele>686.4</ele>
        <time>2019-02-26T15:40:12.000Z</time>
      </trkpt>
      <trkpt lat="47.9011" lon="7.14219">
        <ele>687</ele>
        <time>2019-02-26T15:40:30.000Z</time>
      </trkpt>
      <trkpt lat="47.90105" lon="7.14272">
        <ele>678.7</ele>
        <time>2019-02-26T15:40:48.000Z</time>
      </trkpt>
      <trkpt lat="47.90125" lon="7.1432">
        <ele>683.7</ele>
        <time>2019-02-26T15:41:06.000Z</time>
      </trkpt>
      <trkpt lat="47.90112" lon="7.14302">
        <ele>679.6</ele>
        <time>2019-02-26T15:41:24.000Z</time>
      </trkpt>
      <trkpt lat="47.90113" lon="7.14308">
        <ele>679.5</ele>
        <time>2019-02-26T15:41:42.000Z</time>
      </trkpt>
      <trkpt lat="47.90121" lon="7.14374">
        <ele>676.4</ele>
        <time>2019-02-26T15:42:00.000Z</time>
      </trkpt>
      <trkpt lat="47.90112" lon="7.14368">
        <ele>672</ele>
        <time>2019-02-26T15:42:18.000Z</time>
      </trkpt>
      <trkpt lat="47.90104" lon="7.14391">
        <ele>665.1</ele>
        <time>2019-02-26T15:42:36.000Z</time>
      </trkpt>
      <trkpt lat="47.90121" lon="7.14449">
        <ele>668</ele>
        <time>2019-02-26T15:42:55.000Z</time>
      </trkpt>
      <trkpt lat="47.90118" lon="7.14481">
        <ele>663.3</ele>
        <time>2019-02-26T15:43:14.000Z</time>
      </trkpt>
      <trkpt lat="47.90117" lon="7.14489">
        <ele>662.3</ele>
        <time>2019-02-26T15:43:37.000Z</time>
      </trkpt>
      <trkpt lat="47.90114" lon="7.1455">
        <ele>659.9</ele>
        <time>2019-02-26T15:43:55.000Z</time>
      </trkpt>
      <trkpt lat="47.90125" lon="7.14567">
        <ele>667</ele>
        <time>2019-02-26T15:44:13.000Z</time>
      </trkpt>
      <trkpt lat="47.9011" lon="7.14598">
        <ele>656.1</ele>
        <time>2019-02-26T15:44:31.000Z</time>
      </trkpt>
      <trkpt lat="47.9011" lon="7.14642">
        <ele>657.1</ele>
        <time>2019-02-26T15:44:49.000Z</time>
      </trkpt>
      <trkpt lat="47.90099" lon="7.14657">
        <ele>648.3</ele>
        <time>2019-02-26T15:45:07.000Z</time>
      </trkpt>
      <trkpt lat="47.90118" lon="7.14645">
        <ele>662.2</ele>
        <time>2019-02-26T15:45:25.000Z</time>
      </trkpt>
      <trkpt lat="47.90113" lon="7.14656">
        <ele>659.2</ele>
        <time>2019-02-26T15:45:43.000Z</time>
      </trkpt>
      <trkpt lat="47.90107" lon="7.14661">
        <ele>654.7</ele>
        <time>2019-02-26T15:46:00.000Z</time>
      </trkpt>
      <trkpt lat="47.90104" lon="7.14669">
        <ele>652.5</ele>
        <time>2019-02-26T15:46:18.000Z</time>
      </trkpt>
      <trkpt lat="47.90112" lon="7.14746">
        <ele>662.1</ele>
        <time>2019-02-26T15:46:36.000Z</time>
      </trkpt>
      <trkpt lat="47.901" lon="7.14752">
        <ele>656.6</ele>
        <time>2019-02-26T15:46:54.000Z</time>
      </trkpt>
      <trkpt lat="47.90097" lon="7.14778">
        <ele>657.9</ele>
        <time>2019-02-26T15:47:12.000Z</time>
      </trkpt>
      <trkpt lat="47.90111" lon="7.14799">
        <ele>664.7</ele>
        <time>2019-02-26T15:47:32.000Z</time>
      </trkpt>
      <trkpt lat="47.90133" lon="7.14809">
        <ele>671.9</ele>
        <time>2019-02-26T15:47:50.000Z</time>
      </trkpt>
      <trkpt lat="47.90106" lon="7.1481">
        <ele>663.2</ele>
        <time>2019-02-26T15:48:10.000Z</time>
      </trkpt>
      <trkpt lat="47.90092" lon="7.14814">
        <ele>658.1</ele>
        <time>2019-02-26T15:48:28.000Z</time>
      </trkpt>
      <trkpt lat="47.90083" lon="7.14838">
        <ele>653.8</ele>
        <time>2019-02-26T15:48:46.000Z</time>
      </trkpt>
      <trkpt lat="47.90095" lon="7.14857">
        <ele>654.1</ele>
        <time>2019-02-26T15:49:04.000Z</time>
      </trkpt>
      <trkpt lat="47.90103" lon="7.14875">
        <ele>652.6</ele>
        <time>2019-02-26T15:49:22.000Z</time>
      </trkpt>
      <trkpt lat="47.90112" lon="7.14934">
        <ele>641.9</ele>
        <time>2019-02-26T15:49:40.000Z</time>
      </trkpt>
      <trkpt lat="47.90128" lon="7.14947">
        <ele>642.6</ele>
        <time>2019-02-26T15:49:58.000Z</time>
      </trkpt>
      <trkpt lat="47.90135" lon="7.14976">
        <ele>636.8</ele>
        <time>2019-02-26T15:50:16.000Z</time>
      </trkpt>
      <trkpt lat="47.90167" lon="7.14986">
        <ele>644.1</ele>
        <time>2019-02-26T15:50:34.000Z</time>
      </trkpt>
      <trkpt lat="47.90187" lon="7.1501">
        <ele>643.6</ele>
        <time>2019-02-26T15:50:52.000Z</time>
      </trkpt>
      <trkpt lat="47.90182" lon="7.15051">
        <ele>632</ele>
        <time>2019-02-26T15:51:10.000Z</time>
      </trkpt>
      <trkpt lat="47.90194" lon="7.15058">
        <ele>633.3</ele>
        <time>2019-02-26T15:51:28.000Z</time>
      </trkpt>
      <trkpt lat="47.90204" lon="7.15094">
        <ele>627.6</ele>
        <time>2019-02-26T15:51:46.000Z</time>
      </trkpt>
      <trkpt lat="47.90217" lon="7.15094">
        <ele>631</ele>
        <time>2019-02-26T15:52:04.000Z</time>
      </trkpt>
      <trkpt lat="47.9022" lon="7.1513">
        <ele>622.8</ele>
        <time>2019-02-26T15:52:22.000Z</time>
      </trkpt>
      <trkpt lat="47.90231" lon="7.15163">
        <ele>617.5</ele>
        <time>2019-02-26T15:52:40.000Z</time>
      </trkpt>
      <trkpt lat="47.90254" lon="7.15186">
        <ele>616.4</ele>
        <time>2019-02-26T15:52:58.000Z</time>
      </trkpt>
      <trkpt lat="47.90251" lon="7.15207">
        <ele>611.9</ele>
        <time>2019-02-26T15:53:16.000Z</time>
      </trkpt>
      <trkpt lat="47.90258" lon="7.15229">
        <ele>608.1</ele>
        <time>2019-02-26T15:53:34.000Z</time>
      </trkpt>
      <trkpt lat="47.90268" lon="7.15261">
        <ele>602.2</ele>
        <time>2019-02-26T15:53:52.000Z</time>
      </trkpt>
      <trkpt lat="47.90273" lon="7.15269">
        <ele>600.8</ele>
        <time>2019-02-26T15:54:10.000Z</time>
      </trkpt>
      <trkpt lat="47.90276" lon="7.15272">
        <ele>600.4</ele>
        <time>2019-02-26T15:54:28.000Z</time>
      </trkpt>
      <trkpt lat="47.90303" lon="7.15262">
        <ele>603.9</ele>
        <time>2019-02-26T15:54:45.000Z</time>
      </trkpt>
      <trkpt lat="47.90298" lon="7.15301">
        <ele>594.3</ele>
        <time>2019-02-26T15:55:02.000Z</time>
      </trkpt>
      <trkpt lat="47.90301" lon="7.15303">
        <ele>594.1</ele>
        <time>2019-02-26T15:55:13.000Z</time>
      </trkpt>
      <trkpt lat="47.90304" lon="7.15314">
        <ele>591.9</ele>
        <time>2019-02-26T15:55:30.000Z</time>
      </trkpt>
      <trkpt lat="47.90311" lon="7.15316">
        <ele>592.9</ele>
        <time>2019-02-26T15:55:48.000Z</time>
      </trkpt>
      <trkpt lat="47.90315" lon="7.15345">
        <ele>586.4</ele>
        <time>2019-02-26T15:56:06.000Z</time>
      </trkpt>
      <trkpt lat="47.90327" lon="7.15393">
        <ele>577.4</ele>
        <time>2019-02-26T15:56:24.000Z</time>
      </trkpt>
      <trkpt lat="47.90356" lon="7.15381">
        <ele>583.2</ele>
        <time>2019-02-26T15:56:42.000Z</time>
      </trkpt>
      <trkpt lat="47.9036" lon="7.15412">
        <ele>576.9</ele>
        <time>2019-02-26T15:57:00.000Z</time>
      </trkpt>
      <trkpt lat="47.90372" lon="7.15436">
        <ele>573.9</ele>
        <time>2019-02-26T15:57:18.000Z</time>
      </trkpt>
      <trkpt lat="47.90376" lon="7.15449">
        <ele>572.8</ele>
        <time>2019-02-26T15:57:36.000Z</time>
      </trkpt>
      <trkpt lat="47.90388" lon="7.15474">
        <ele>571.8</ele>
        <time>2019-02-26T15:57:54.000Z</time>
      </trkpt>
      <trkpt lat="47.90379" lon="7.15484">
        <ele>570.4</ele>
        <time>2019-02-26T15:58:12.000Z</time>
      </trkpt>
      <trkpt lat="47.9038" lon="7.15489">
        <ele>569.9</ele>
        <time>2019-02-26T15:58:29.000Z</time>
      </trkpt>
      <trkpt lat="47.90381" lon="7.15516">
        <ele>567.6</ele>
        <time>2019-02-26T15:58:47.000Z</time>
      </trkpt>
      <trkpt lat="47.90382" lon="7.15518">
        <ele>567.5</ele>
        <time>2019-02-26T15:59:02.645Z</time>
      </trkpt>
      <trkpt lat="47.90384" lon="7.1552">
        <ele>567.4</ele>
        <time>2019-02-26T15:59:21.000Z</time>
      </trkpt>
      <trkpt lat="47.90409" lon="7.15562">
        <ele>564.5</ele>
        <time>2019-02-26T15:59:39.000Z</time>
      </trkpt>
      <trkpt lat="47.9043" lon="7.15579">
        <ele>563.7</ele>
        <time>2019-02-26T15:59:57.000Z</time>
      </trkpt>
      <trkpt lat="47.90449" lon="7.15591">
        <ele>563.5</ele>
        <time>2019-02-26T16:00:15.000Z</time>
      </trkpt>
      <trkpt lat="47.90458" lon="7.15638">
        <ele>561.5</ele>
        <time>2019-02-26T16:00:33.000Z</time>
      </trkpt>
      <trkpt lat="47.90468" lon="7.15625">
        <ele>562.3</ele>
        <time>2019-02-26T16:00:51.000Z</time>
      </trkpt>
      <trkpt lat="47.90472" lon="7.1562">
        <ele>562.7</ele>
        <time>2019-02-26T16:01:03.000Z</time>
        <extensions>
          <visugpx:TrkExtension xmlns:visugpx="https://www.visugpx.com/editgpx/">
            <visugpx:node>1</visugpx:node>
            </visugpx:TrkExtension>
        </extensions>
      </trkpt>
    </trkseg>
  </trk>
</gpx>